CPA383 VHHH-LSZH
Flight info
| Callsign | CPA383 |
|---|---|
| Flight time | 12h 54m |
| Altitude | 34100 |
| Route | BEKOL A461 SHL W22 TEPID W24 OSNOV G586 QP B330 ELKAL W179 IGNAK/K0948S0950 W179 WFX/K0937S0980 W179 OMBON W195 VIDEK/K0943S0950 W195 LAXAL/K0932S0980 W195 IDOPA W197 ANDIM B215 IBANO G470 AKLAS W192 FKG A368 SALMO/K0911S1040 A368 SARIN/K0911F340 N161 GASBI/N0489F360 N161 LEYLA N644 ADEKI DCT BADIR DCT LAGAS DCT NOLGA UN61 TBN UM11 CRM UL746 ODERO DCT LUGEB DCT NERDI DCT INVED DCT GOTAR DCT ERKIR DCT KPT L856 NEGRA |
| Aircraft | A359/H-SDE2E3GHIJ3J4J5LM1ORWXY/LB1D1 |
Departure
| Time | 2026-04-25 21:09 |
|---|---|
| Airport | Hong Kong International Airport (VHHH) |
Arrival
| Time | 2026-04-26 10:04 |
|---|---|
| Airport | Zürich Airport (LSZH) |
| Time | Latitude | Longitude | Altitude | Speed | Heading |
|---|---|---|---|---|---|
| 2026-04-25 20:26 | 22.31112 | 113.92739 | 43 ft | 0 kts | 295° |
| 2026-04-25 20:50 | 22.31110 | 113.92743 | 43 ft | 2 kts | 295° |
| 2026-04-25 20:50 | 22.31104 | 113.92757 | 42 ft | 2 kts | 296° |
| 2026-04-25 20:50 | 22.31098 | 113.92770 | 40 ft | 2 kts | 296° |
| 2026-04-25 20:51 | 22.31092 | 113.92783 | 42 ft | 2 kts | 296° |
| 2026-04-25 20:51 | 22.31086 | 113.92797 | 39 ft | 2 kts | 296° |
| 2026-04-25 20:51 | 22.31080 | 113.92810 | 42 ft | 1 kts | 290° |
| 2026-04-25 20:51 | 22.31078 | 113.92820 | 43 ft | 1 kts | 264° |
| 2026-04-25 20:52 | 22.31080 | 113.92830 | 42 ft | 1 kts | 239° |
| 2026-04-25 20:52 | 22.31084 | 113.92837 | 41 ft | 2 kts | 226° |
| 2026-04-25 20:52 | 22.31093 | 113.92845 | 38 ft | 1 kts | 214° |
| 2026-04-25 20:52 | 22.31097 | 113.92849 | 39 ft | 1 kts | 212° |
| 2026-04-25 20:53 | 22.31102 | 113.92851 | 40 ft | 1 kts | 209° |
| 2026-04-25 20:53 | 22.31107 | 113.92854 | 40 ft | 0 kts | 207° |
| 2026-04-25 20:55 | 22.31099 | 113.92850 | 43 ft | 4 kts | 206° |
| 2026-04-25 20:55 | 22.31053 | 113.92826 | 43 ft | 11 kts | 206° |
| 2026-04-25 20:55 | 22.30974 | 113.92785 | 43 ft | 13 kts | 206° |
| 2026-04-25 20:55 | 22.30890 | 113.92741 | 43 ft | 12 kts | 206° |
| 2026-04-25 20:56 | 22.30836 | 113.92684 | 43 ft | 11 kts | 242° |
| 2026-04-25 20:56 | 22.30807 | 113.92603 | 43 ft | 12 kts | 250° |
| 2026-04-25 20:56 | 22.30778 | 113.92518 | 43 ft | 12 kts | 249° |
| 2026-04-25 20:56 | 22.30750 | 113.92431 | 43 ft | 13 kts | 251° |
| 2026-04-25 20:57 | 22.30755 | 113.92352 | 43 ft | 10 kts | 318° |
| 2026-04-25 20:57 | 22.30821 | 113.92320 | 43 ft | 11 kts | 340° |
| 2026-04-25 20:57 | 22.30898 | 113.92292 | 43 ft | 13 kts | 341° |
| 2026-04-25 20:57 | 22.30996 | 113.92255 | 43 ft | 16 kts | 341° |
| 2026-04-25 20:58 | 22.31103 | 113.92214 | 43 ft | 17 kts | 341° |
| 2026-04-25 20:58 | 22.31213 | 113.92173 | 43 ft | 16 kts | 340° |
| 2026-04-25 20:58 | 22.31284 | 113.92146 | 43 ft | 16 kts | 341° |
| 2026-04-25 20:58 | 22.31426 | 113.92094 | 43 ft | 16 kts | 341° |
| 2026-04-25 20:59 | 22.31497 | 113.92067 | 43 ft | 16 kts | 341° |
| 2026-04-25 20:59 | 22.31587 | 113.92031 | 43 ft | 12 kts | 335° |
| 2026-04-25 20:59 | 22.31608 | 113.91967 | 43 ft | 5 kts | 258° |
| 2026-04-25 20:59 | 22.31608 | 113.91966 | 43 ft | 0 kts | 257° |
| 2026-04-25 21:00 | 22.31603 | 113.91944 | 43 ft | 7 kts | 255° |
| 2026-04-25 21:00 | 22.31597 | 113.91923 | 43 ft | 10 kts | 252° |
| 2026-04-25 21:00 | 22.31551 | 113.91792 | 43 ft | 7 kts | 231° |
| 2026-04-25 21:01 | 22.31508 | 113.91774 | 43 ft | 7 kts | 181° |
| 2026-04-25 21:01 | 22.31465 | 113.91764 | 43 ft | 7 kts | 210° |
| 2026-04-25 21:01 | 22.31434 | 113.91706 | 43 ft | 12 kts | 248° |
| 2026-04-25 21:01 | 22.31400 | 113.91604 | 43 ft | 17 kts | 251° |
| 2026-04-25 21:02 | 22.31360 | 113.91481 | 43 ft | 19 kts | 251° |
| 2026-04-25 21:02 | 22.31316 | 113.91343 | 43 ft | 20 kts | 251° |
| 2026-04-25 21:02 | 22.31270 | 113.91202 | 43 ft | 20 kts | 251° |
| 2026-04-25 21:02 | 22.31224 | 113.91060 | 43 ft | 20 kts | 251° |
| 2026-04-25 21:03 | 22.31178 | 113.90916 | 43 ft | 20 kts | 251° |
| 2026-04-25 21:03 | 22.31136 | 113.90787 | 43 ft | 14 kts | 251° |
| 2026-04-25 21:03 | 22.31102 | 113.90681 | 43 ft | 15 kts | 251° |
| 2026-04-25 21:03 | 22.31068 | 113.90575 | 43 ft | 15 kts | 251° |
| 2026-04-25 21:04 | 22.31032 | 113.90464 | 43 ft | 16 kts | 251° |
| 2026-04-25 21:04 | 22.30996 | 113.90353 | 43 ft | 12 kts | 251° |
| 2026-04-25 21:04 | 22.30973 | 113.90283 | 43 ft | 7 kts | 250° |
| 2026-04-25 21:04 | 22.30956 | 113.90231 | 43 ft | 8 kts | 250° |
| 2026-04-25 21:05 | 22.30938 | 113.90175 | 43 ft | 8 kts | 250° |
| 2026-04-25 21:05 | 22.30919 | 113.90118 | 43 ft | 8 kts | 251° |
| 2026-04-25 21:05 | 22.30901 | 113.90061 | 43 ft | 8 kts | 251° |
| 2026-04-25 21:05 | 22.30883 | 113.90004 | 43 ft | 9 kts | 251° |
| 2026-04-25 21:06 | 22.30862 | 113.89940 | 43 ft | 9 kts | 251° |
| 2026-04-25 21:06 | 22.30848 | 113.89875 | 43 ft | 7 kts | 278° |
| 2026-04-25 21:06 | 22.30880 | 113.89837 | 43 ft | 7 kts | 329° |
| 2026-04-25 21:06 | 22.30911 | 113.89822 | 43 ft | 8 kts | 338° |
| 2026-04-25 21:07 | 22.30941 | 113.89810 | 43 ft | 0 kts | 339° |
| 2026-04-25 21:07 | 22.30952 | 113.89805 | 43 ft | 5 kts | 339° |
| 2026-04-25 21:07 | 22.31015 | 113.89780 | 43 ft | 12 kts | 341° |
| 2026-04-25 21:08 | 22.31053 | 113.89771 | 42 ft | 8 kts | 355° |
| 2026-04-25 21:08 | 22.31100 | 113.89819 | 40 ft | 11 kts | 68° |
| 2026-04-25 21:08 | 22.31104 | 113.89830 | 42 ft | 0 kts | 71° |
| 2026-04-25 21:08 | 22.31120 | 113.89880 | 43 ft | 30 kts | 70° |
| 2026-04-25 21:09 | 22.31587 | 113.91324 | 45 ft | 168 kts | 71° |
| 2026-04-25 21:09 | 22.32012 | 113.92605 | 623 ft | 180 kts | 70° |
| 2026-04-25 21:09 | 22.32433 | 113.93873 | 1455 ft | 186 kts | 71° |
| 2026-04-25 21:10 | 22.32879 | 113.95287 | 1758 ft | 207 kts | 71° |
| 2026-04-25 21:10 | 22.33330 | 113.96830 | 1963 ft | 223 kts | 77° |
| 2026-04-25 21:10 | 22.33639 | 113.98476 | 2383 ft | 229 kts | 80° |
| 2026-04-25 21:10 | 22.33822 | 114.00205 | 2804 ft | 235 kts | 90° |
| 2026-04-25 21:11 | 22.33557 | 114.01953 | 3294 ft | 238 kts | 110° |
| 2026-04-25 21:11 | 22.32740 | 114.03503 | 3753 ft | 240 kts | 131° |
| 2026-04-25 21:11 | 22.31471 | 114.04675 | 4231 ft | 241 kts | 148° |
| 2026-04-25 21:11 | 22.30037 | 114.05620 | 4751 ft | 242 kts | 151° |
| 2026-04-25 21:12 | 22.28572 | 114.06551 | 5222 ft | 245 kts | 150° |
| 2026-04-25 21:12 | 22.27100 | 114.07496 | 5715 ft | 248 kts | 150° |
| 2026-04-25 21:12 | 22.25605 | 114.08382 | 6150 ft | 252 kts | 159° |
| 2026-04-25 21:12 | 22.24447 | 114.08689 | 6446 ft | 252 kts | 177° |
| 2026-04-25 21:13 | 22.22036 | 114.08722 | 6822 ft | 269 kts | 182° |
| 2026-04-25 21:13 | 22.20149 | 114.08688 | 7118 ft | 280 kts | 181° |
| 2026-04-25 21:13 | 22.18210 | 114.09051 | 7539 ft | 287 kts | 158° |
| 2026-04-25 21:13 | 22.16619 | 114.10349 | 7933 ft | 292 kts | 126° |
| 2026-04-25 21:14 | 22.15846 | 114.12359 | 8476 ft | 292 kts | 98° |
| 2026-04-25 21:14 | 22.15655 | 114.14539 | 9057 ft | 293 kts | 92° |
| 2026-04-25 21:14 | 22.15542 | 114.16745 | 9594 ft | 296 kts | 92° |
| 2026-04-25 21:14 | 22.15422 | 114.18977 | 10090 ft | 300 kts | 92° |
| 2026-04-25 21:15 | 22.15293 | 114.21240 | 10370 ft | 312 kts | 92° |
| 2026-04-25 21:15 | 22.15152 | 114.23628 | 10592 ft | 326 kts | 92° |
| 2026-04-25 21:15 | 22.15249 | 114.26105 | 10777 ft | 337 kts | 77° |
| 2026-04-25 21:15 | 22.15750 | 114.28618 | 10981 ft | 348 kts | 75° |
| 2026-04-25 21:16 | 22.16324 | 114.31201 | 11190 ft | 359 kts | 75° |
| 2026-04-25 21:16 | 22.16908 | 114.33856 | 11368 ft | 370 kts | 75° |
| 2026-04-25 21:16 | 22.17505 | 114.36605 | 11578 ft | 380 kts | 75° |
| 2026-04-25 21:16 | 22.18288 | 114.39350 | 11740 ft | 388 kts | 64° |
| 2026-04-25 21:17 | 22.19787 | 114.41774 | 11957 ft | 390 kts | 44° |
| 2026-04-25 21:17 | 22.21962 | 114.43496 | 12275 ft | 390 kts | 25° |
| 2026-04-25 21:17 | 22.24562 | 114.44326 | 12610 ft | 390 kts | 5° |
| 2026-04-25 21:17 | 22.27260 | 114.44155 | 12966 ft | 391 kts | 346° |
| 2026-04-25 21:18 | 22.29750 | 114.43005 | 13325 ft | 392 kts | 327° |
| 2026-04-25 21:18 | 22.32064 | 114.41435 | 13693 ft | 394 kts | 333° |
| 2026-04-25 21:18 | 22.34662 | 114.40501 | 14029 ft | 395 kts | 348° |
| 2026-04-25 21:18 | 22.37335 | 114.39956 | 14352 ft | 397 kts | 349° |
| 2026-04-25 21:19 | 22.40063 | 114.39446 | 14683 ft | 399 kts | 349° |
| 2026-04-25 21:19 | 22.42811 | 114.38933 | 15020 ft | 400 kts | 349° |
| 2026-04-25 21:19 | 22.45545 | 114.38332 | 15374 ft | 401 kts | 344° |
| 2026-04-25 21:19 | 22.48103 | 114.37124 | 15668 ft | 403 kts | 327° |
| 2026-04-25 21:20 | 22.50207 | 114.35133 | 15981 ft | 406 kts | 310° |
| 2026-04-25 21:20 | 22.51259 | 114.33447 | 16185 ft | 409 kts | 299° |
| 2026-04-25 21:20 | 22.52310 | 114.29478 | 16581 ft | 417 kts | 275° |
| 2026-04-25 21:20 | 22.52405 | 114.26375 | 16888 ft | 419 kts | 277° |
| 2026-04-25 21:21 | 22.52770 | 114.23253 | 17204 ft | 419 kts | 281° |
| 2026-04-25 21:21 | 22.53252 | 114.20131 | 17511 ft | 421 kts | 282° |
| 2026-04-25 21:21 | 22.53978 | 114.17066 | 17789 ft | 420 kts | 293° |
| 2026-04-25 21:21 | 22.55364 | 114.14300 | 18100 ft | 418 kts | 308° |
| 2026-04-25 21:22 | 22.57389 | 114.12060 | 18380 ft | 417 kts | 323° |
| 2026-04-25 21:22 | 22.59844 | 114.10384 | 18635 ft | 418 kts | 331° |
| 2026-04-25 21:22 | 22.62429 | 114.08944 | 18901 ft | 419 kts | 334° |
| 2026-04-25 21:22 | 22.65080 | 114.07604 | 19167 ft | 421 kts | 335° |
| 2026-04-25 21:23 | 22.67754 | 114.06297 | 19440 ft | 422 kts | 335° |
| 2026-04-25 21:23 | 22.70446 | 114.04981 | 19656 ft | 425 kts | 335° |
| 2026-04-25 21:23 | 22.73140 | 114.03643 | 19943 ft | 426 kts | 335° |
| 2026-04-25 21:23 | 22.75834 | 114.02284 | 20215 ft | 428 kts | 334° |
| 2026-04-25 21:24 | 22.78527 | 114.00910 | 20482 ft | 429 kts | 334° |
| 2026-04-25 21:24 | 22.81197 | 113.99536 | 20785 ft | 431 kts | 334° |
| 2026-04-25 21:24 | 22.83910 | 113.98136 | 21077 ft | 432 kts | 334° |
| 2026-04-25 21:24 | 22.86627 | 113.96733 | 21381 ft | 434 kts | 334° |
| 2026-04-25 21:25 | 22.89358 | 113.95321 | 21666 ft | 436 kts | 334° |
| 2026-04-25 21:25 | 22.92108 | 113.93906 | 21977 ft | 437 kts | 333° |
| 2026-04-25 21:25 | 22.94854 | 113.92482 | 22277 ft | 439 kts | 333° |
| 2026-04-25 21:25 | 22.97616 | 113.91040 | 22566 ft | 440 kts | 333° |
| 2026-04-25 21:26 | 23.00382 | 113.89595 | 22880 ft | 442 kts | 333° |
| 2026-04-25 21:26 | 23.03156 | 113.88145 | 23176 ft | 444 kts | 333° |
| 2026-04-25 21:26 | 23.05948 | 113.86680 | 23465 ft | 445 kts | 332° |
| 2026-04-25 21:26 | 23.08629 | 113.84989 | 23722 ft | 446 kts | 324° |
| 2026-04-25 21:27 | 23.11043 | 113.82937 | 23965 ft | 446 kts | 318° |
| 2026-04-25 21:27 | 23.13358 | 113.80695 | 24233 ft | 447 kts | 316° |
| 2026-04-25 21:27 | 23.15630 | 113.78372 | 24514 ft | 448 kts | 315° |
| 2026-04-25 21:27 | 23.17871 | 113.76017 | 24822 ft | 449 kts | 315° |
| 2026-04-25 21:28 | 23.20114 | 113.73640 | 25123 ft | 451 kts | 315° |
| 2026-04-25 21:28 | 23.22365 | 113.71252 | 25406 ft | 453 kts | 315° |
| 2026-04-25 21:28 | 23.24629 | 113.68860 | 25725 ft | 454 kts | 315° |
| 2026-04-25 21:28 | 23.26904 | 113.66464 | 26048 ft | 456 kts | 315° |
| 2026-04-25 21:29 | 23.29191 | 113.64061 | 26367 ft | 457 kts | 315° |
| 2026-04-25 21:29 | 23.31491 | 113.61649 | 26673 ft | 459 kts | 315° |
| 2026-04-25 21:29 | 23.33794 | 113.59233 | 26987 ft | 460 kts | 315° |
| 2026-04-25 21:29 | 23.36074 | 113.56842 | 27292 ft | 462 kts | 315° |
| 2026-04-25 21:30 | 23.38419 | 113.54380 | 27580 ft | 463 kts | 315° |
| 2026-04-25 21:30 | 23.40711 | 113.51972 | 27866 ft | 465 kts | 315° |
| 2026-04-25 21:30 | 23.43045 | 113.49519 | 28165 ft | 466 kts | 315° |
| 2026-04-25 21:30 | 23.44623 | 113.47860 | 28348 ft | 467 kts | 315° |
| 2026-04-25 21:31 | 23.47730 | 113.44591 | 28699 ft | 469 kts | 315° |
| 2026-04-25 21:31 | 23.50077 | 113.42120 | 28935 ft | 471 kts | 315° |
| 2026-04-25 21:31 | 23.52443 | 113.39627 | 29173 ft | 473 kts | 315° |
| 2026-04-25 21:31 | 23.54800 | 113.37145 | 29561 ft | 471 kts | 315° |
| 2026-04-25 21:32 | 23.57141 | 113.34654 | 29964 ft | 469 kts | 314° |
| 2026-04-25 21:32 | 23.59455 | 113.32163 | 30293 ft | 467 kts | 314° |
| 2026-04-25 21:32 | 23.61764 | 113.29667 | 30606 ft | 466 kts | 314° |
| 2026-04-25 21:32 | 23.64048 | 113.27159 | 30894 ft | 465 kts | 312° |
| 2026-04-25 21:33 | 23.66107 | 113.24452 | 31184 ft | 463 kts | 306° |
| 2026-04-25 21:33 | 23.67805 | 113.21532 | 31449 ft | 462 kts | 298° |
| 2026-04-25 21:33 | 23.69249 | 113.18395 | 31724 ft | 462 kts | 296° |
| 2026-04-25 21:33 | 23.70612 | 113.15217 | 31987 ft | 462 kts | 295° |
| 2026-04-25 21:34 | 23.71934 | 113.12021 | 32279 ft | 460 kts | 295° |
| 2026-04-25 21:34 | 23.73236 | 113.08829 | 32510 ft | 460 kts | 295° |
| 2026-04-25 21:34 | 23.74682 | 113.05712 | 32654 ft | 461 kts | 301° |
| 2026-04-25 21:34 | 23.76476 | 113.02822 | 32864 ft | 460 kts | 308° |
| 2026-04-25 21:35 | 23.78626 | 113.00238 | 33134 ft | 459 kts | 316° |
| 2026-04-25 21:35 | 23.81094 | 112.98043 | 33388 ft | 458 kts | 324° |
| 2026-04-25 21:35 | 23.83849 | 112.96281 | 33613 ft | 459 kts | 333° |
| 2026-04-25 21:35 | 23.86813 | 112.94989 | 33944 ft | 458 kts | 339° |
| 2026-04-25 21:36 | 23.89836 | 112.93918 | 34230 ft | 455 kts | 340° |
| 2026-04-25 21:36 | 23.92831 | 112.92924 | 34386 ft | 456 kts | 341° |
| 2026-04-25 21:36 | 23.95878 | 112.91947 | 34513 ft | 457 kts | 341° |
| 2026-04-25 21:36 | 23.98929 | 112.90962 | 34655 ft | 456 kts | 340° |
| 2026-04-25 21:37 | 24.01967 | 112.89970 | 34800 ft | 456 kts | 340° |
| 2026-04-25 21:37 | 24.02994 | 112.89632 | 34847 ft | 456 kts | 340° |
| 2026-04-25 21:37 | 24.08041 | 112.87959 | 35080 ft | 456 kts | 340° |
| 2026-04-25 21:37 | 24.11084 | 112.86945 | 35217 ft | 456 kts | 340° |
| 2026-04-25 21:38 | 24.14113 | 112.85934 | 35353 ft | 455 kts | 340° |
| 2026-04-25 21:38 | 24.17146 | 112.84926 | 35523 ft | 454 kts | 340° |
| 2026-04-25 21:38 | 24.20167 | 112.83925 | 35734 ft | 452 kts | 340° |
| 2026-04-25 21:38 | 24.23175 | 112.82925 | 35867 ft | 452 kts | 340° |
| 2026-04-25 21:39 | 24.29172 | 112.80924 | 35939 ft | 455 kts | 339° |
| 2026-04-25 21:39 | 24.35256 | 112.78894 | 36025 ft | 458 kts | 340° |
| 2026-04-25 21:40 | 24.41170 | 112.76360 | 36046 ft | 454 kts | 328° |
| 2026-04-25 21:40 | 24.46167 | 112.72223 | 36043 ft | 449 kts | 312° |
| 2026-04-25 21:41 | 24.49760 | 112.66638 | 36054 ft | 448 kts | 296° |
| 2026-04-25 21:41 | 24.51617 | 112.60116 | 36051 ft | 452 kts | 280° |
| 2026-04-25 21:42 | 24.51655 | 112.53189 | 36051 ft | 456 kts | 270° |
| 2026-04-25 21:42 | 24.51844 | 112.46254 | 36053 ft | 454 kts | 277° |
| 2026-04-25 21:43 | 24.52396 | 112.39395 | 36049 ft | 454 kts | 278° |
| 2026-04-25 21:43 | 24.53049 | 112.32503 | 36051 ft | 453 kts | 278° |
| 2026-04-25 21:44 | 24.53719 | 112.25618 | 36055 ft | 454 kts | 278° |
| 2026-04-25 21:45 | 24.54708 | 112.15256 | 36057 ft | 455 kts | 278° |
| 2026-04-25 21:45 | 24.55364 | 112.08338 | 36056 ft | 455 kts | 278° |
| 2026-04-25 21:46 | 24.56019 | 112.01391 | 36052 ft | 459 kts | 278° |
| 2026-04-25 21:46 | 24.56675 | 111.94383 | 36052 ft | 463 kts | 278° |
| 2026-04-25 21:47 | 24.57220 | 111.88522 | 36051 ft | 465 kts | 278° |
| 2026-04-25 21:47 | 24.57877 | 111.81429 | 36053 ft | 467 kts | 278° |
| 2026-04-25 21:48 | 24.58532 | 111.74319 | 36052 ft | 468 kts | 277° |
| 2026-04-25 21:48 | 24.59185 | 111.67191 | 36051 ft | 469 kts | 277° |
| 2026-04-25 21:49 | 24.59836 | 111.60057 | 36050 ft | 469 kts | 277° |
| 2026-04-25 21:49 | 24.60478 | 111.52966 | 36044 ft | 469 kts | 277° |
| 2026-04-25 21:50 | 24.61123 | 111.45828 | 36045 ft | 469 kts | 277° |
| 2026-04-25 21:50 | 24.61763 | 111.38695 | 36044 ft | 469 kts | 277° |
| 2026-04-25 21:51 | 24.62400 | 111.31559 | 36045 ft | 469 kts | 277° |
| 2026-04-25 21:51 | 24.63034 | 111.24425 | 36045 ft | 469 kts | 277° |
| 2026-04-25 21:52 | 24.63648 | 111.17284 | 36046 ft | 469 kts | 277° |
| 2026-04-25 21:52 | 24.64257 | 111.10144 | 36042 ft | 469 kts | 277° |
| 2026-04-25 21:53 | 24.64866 | 111.02991 | 36040 ft | 470 kts | 277° |
| 2026-04-25 21:53 | 24.65470 | 110.95885 | 36042 ft | 470 kts | 277° |
| 2026-04-25 21:54 | 24.66076 | 110.88726 | 36045 ft | 470 kts | 277° |
| 2026-04-25 21:54 | 24.67198 | 110.81673 | 36042 ft | 467 kts | 288° |
| 2026-04-25 21:55 | 24.69987 | 110.75251 | 36040 ft | 466 kts | 304° |
| 2026-04-25 21:55 | 24.74286 | 110.69912 | 36036 ft | 467 kts | 314° |
| 2026-04-25 21:56 | 24.78984 | 110.64958 | 36042 ft | 468 kts | 315° |
| 2026-04-25 21:56 | 24.83695 | 110.60071 | 36037 ft | 468 kts | 315° |
| 2026-04-25 21:57 | 24.88416 | 110.55128 | 36038 ft | 467 kts | 315° |
| 2026-04-25 21:57 | 24.93111 | 110.50176 | 36036 ft | 467 kts | 315° |
| 2026-04-25 21:58 | 24.97800 | 110.45215 | 36033 ft | 468 kts | 315° |
| 2026-04-25 21:58 | 25.02502 | 110.40239 | 36034 ft | 469 kts | 315° |
| 2026-04-25 21:59 | 25.07213 | 110.35264 | 36032 ft | 469 kts | 315° |
| 2026-04-25 21:59 | 25.11893 | 110.30317 | 36028 ft | 469 kts | 315° |
| 2026-04-25 22:00 | 25.18954 | 110.22845 | 36026 ft | 467 kts | 315° |
| 2026-04-25 22:00 | 25.23660 | 110.17883 | 36022 ft | 467 kts | 315° |
| 2026-04-25 22:01 | 25.28378 | 110.12948 | 36017 ft | 467 kts | 315° |
| 2026-04-25 22:01 | 25.32305 | 110.08840 | 36028 ft | 468 kts | 315° |
| 2026-04-25 22:02 | 25.37835 | 110.03041 | 36031 ft | 469 kts | 315° |
| 2026-04-25 22:02 | 25.42565 | 109.98071 | 36030 ft | 469 kts | 315° |
| 2026-04-25 22:03 | 25.47299 | 109.93091 | 36051 ft | 469 kts | 315° |
| 2026-04-25 22:03 | 25.52013 | 109.88128 | 36035 ft | 467 kts | 315° |
| 2026-04-25 22:04 | 25.56693 | 109.83197 | 36040 ft | 467 kts | 315° |
| 2026-04-25 22:04 | 25.61404 | 109.78224 | 36028 ft | 467 kts | 315° |
| 2026-04-25 22:05 | 25.66121 | 109.73239 | 36032 ft | 469 kts | 315° |
| 2026-04-25 22:05 | 25.70838 | 109.68248 | 36030 ft | 469 kts | 315° |
| 2026-04-25 22:06 | 25.75390 | 109.63077 | 36029 ft | 467 kts | 307° |
| 2026-04-25 22:06 | 25.78625 | 109.56925 | 36029 ft | 466 kts | 291° |
| 2026-04-25 22:07 | 25.80335 | 109.51205 | 36024 ft | 466 kts | 287° |
| 2026-04-25 22:07 | 25.82432 | 109.43166 | 36027 ft | 467 kts | 287° |
| 2026-04-25 22:08 | 25.84213 | 109.36235 | 36035 ft | 466 kts | 287° |
| 2026-04-25 22:08 | 25.86016 | 109.29310 | 36025 ft | 468 kts | 287° |
| 2026-04-25 22:09 | 25.87828 | 109.22382 | 36027 ft | 468 kts | 287° |
| 2026-04-25 22:09 | 25.89645 | 109.15436 | 36029 ft | 468 kts | 287° |
| 2026-04-25 22:10 | 25.91458 | 109.08482 | 36031 ft | 468 kts | 286° |
| 2026-04-25 22:10 | 25.93271 | 109.01540 | 36035 ft | 468 kts | 287° |
| 2026-04-25 22:11 | 25.95105 | 108.94649 | 36037 ft | 468 kts | 287° |
| 2026-04-25 22:11 | 25.96951 | 108.87722 | 36033 ft | 468 kts | 287° |
| 2026-04-25 22:12 | 25.98803 | 108.80741 | 36042 ft | 468 kts | 287° |
| 2026-04-25 22:12 | 26.00335 | 108.74952 | 36040 ft | 468 kts | 286° |
| 2026-04-25 22:13 | 26.02478 | 108.66880 | 36043 ft | 468 kts | 287° |
| 2026-04-25 22:13 | 26.04323 | 108.59937 | 36043 ft | 468 kts | 286° |
| 2026-04-25 22:14 | 26.06164 | 108.52994 | 36044 ft | 468 kts | 286° |
| 2026-04-25 22:14 | 26.08000 | 108.46056 | 36046 ft | 468 kts | 286° |
| 2026-04-25 22:15 | 26.10019 | 108.39179 | 36044 ft | 467 kts | 293° |
| 2026-04-25 22:16 | 26.14118 | 108.29385 | 36045 ft | 467 kts | 295° |
| 2026-04-25 22:16 | 26.16956 | 108.22868 | 36041 ft | 468 kts | 295° |
| 2026-04-25 22:17 | 26.19790 | 108.16343 | 36041 ft | 467 kts | 295° |
| 2026-04-25 22:17 | 26.22608 | 108.09819 | 36041 ft | 467 kts | 295° |
| 2026-04-25 22:18 | 26.25420 | 108.03285 | 36040 ft | 466 kts | 295° |
| 2026-04-25 22:18 | 26.28199 | 107.96823 | 36040 ft | 457 kts | 295° |
| 2026-04-25 22:19 | 26.30906 | 107.90518 | 36042 ft | 453 kts | 295° |
| 2026-04-25 22:19 | 26.33625 | 107.84173 | 36053 ft | 453 kts | 295° |
| 2026-04-25 22:20 | 26.36346 | 107.77814 | 36032 ft | 454 kts | 295° |
| 2026-04-25 22:20 | 26.39065 | 107.71453 | 36036 ft | 454 kts | 294° |
| 2026-04-25 22:21 | 26.41777 | 107.65100 | 36020 ft | 453 kts | 294° |
| 2026-04-25 22:21 | 26.44465 | 107.58790 | 36034 ft | 453 kts | 294° |
| 2026-04-25 22:22 | 26.47165 | 107.52446 | 36050 ft | 452 kts | 294° |
| 2026-04-25 22:22 | 26.49883 | 107.46054 | 36050 ft | 452 kts | 294° |
| 2026-04-25 22:23 | 26.52551 | 107.39741 | 36026 ft | 452 kts | 294° |
| 2026-04-25 22:23 | 26.55242 | 107.33374 | 36039 ft | 453 kts | 294° |
| 2026-04-25 22:24 | 26.57936 | 107.27016 | 36041 ft | 453 kts | 294° |
| 2026-04-25 22:24 | 26.60626 | 107.20647 | 36024 ft | 453 kts | 294° |
| 2026-04-25 22:25 | 26.63300 | 107.14310 | 36038 ft | 453 kts | 294° |
| 2026-04-25 22:25 | 26.66004 | 107.07943 | 36026 ft | 453 kts | 294° |
| 2026-04-25 22:26 | 26.68714 | 107.01565 | 36035 ft | 453 kts | 294° |
| 2026-04-25 22:26 | 26.71419 | 106.95188 | 36016 ft | 454 kts | 294° |
| 2026-04-25 22:27 | 26.74109 | 106.88836 | 36033 ft | 454 kts | 294° |
| 2026-04-25 22:27 | 26.76843 | 106.82411 | 36020 ft | 455 kts | 295° |
| 2026-04-25 22:28 | 26.80414 | 106.76594 | 36016 ft | 460 kts | 310° |
| 2026-04-25 22:28 | 26.85096 | 106.71658 | 36012 ft | 463 kts | 315° |
| 2026-04-25 22:29 | 26.89955 | 106.66919 | 36016 ft | 463 kts | 316° |
| 2026-04-25 22:29 | 26.94838 | 106.62190 | 36004 ft | 463 kts | 315° |
| 2026-04-25 22:30 | 27.02123 | 106.55065 | 35992 ft | 463 kts | 315° |
| 2026-04-25 22:30 | 27.06150 | 106.51105 | 35995 ft | 463 kts | 315° |
| 2026-04-25 22:31 | 27.11786 | 106.45555 | 35973 ft | 463 kts | 316° |
| 2026-04-25 22:31 | 27.16637 | 106.40774 | 35970 ft | 464 kts | 315° |
| 2026-04-25 22:32 | 27.21491 | 106.35990 | 35970 ft | 464 kts | 316° |
| 2026-04-25 22:32 | 27.26373 | 106.31238 | 35960 ft | 464 kts | 316° |
| 2026-04-25 22:33 | 27.31264 | 106.26489 | 35962 ft | 465 kts | 316° |
| 2026-04-25 22:33 | 27.36151 | 106.21733 | 35958 ft | 464 kts | 316° |
| 2026-04-25 22:34 | 27.41002 | 106.17000 | 35947 ft | 464 kts | 316° |
| 2026-04-25 22:34 | 27.45882 | 106.12230 | 35953 ft | 465 kts | 316° |
| 2026-04-25 22:35 | 27.50763 | 106.07454 | 35936 ft | 465 kts | 316° |
| 2026-04-25 22:35 | 27.54826 | 106.03476 | 35927 ft | 464 kts | 316° |
| 2026-04-25 22:36 | 27.59700 | 105.98694 | 35925 ft | 464 kts | 316° |
| 2026-04-25 22:36 | 27.64579 | 105.93902 | 35925 ft | 465 kts | 316° |
| 2026-04-25 22:37 | 27.69411 | 105.89062 | 35913 ft | 463 kts | 312° |
| 2026-04-25 22:37 | 27.73286 | 105.83331 | 35913 ft | 458 kts | 296° |
| 2026-04-25 22:38 | 27.75660 | 105.76692 | 35896 ft | 457 kts | 288° |
| 2026-04-25 22:38 | 27.77588 | 105.69842 | 35894 ft | 458 kts | 286° |
| 2026-04-25 22:39 | 27.79466 | 105.62976 | 35887 ft | 458 kts | 288° |
| 2026-04-25 22:39 | 27.81858 | 105.56273 | 35893 ft | 462 kts | 292° |
| 2026-04-25 22:40 | 27.84409 | 105.49634 | 35883 ft | 464 kts | 292° |
| 2026-04-25 22:40 | 27.87004 | 105.42959 | 35875 ft | 463 kts | 292° |
| 2026-04-25 22:41 | 27.89615 | 105.36301 | 35878 ft | 464 kts | 294° |
| 2026-04-25 22:41 | 27.92520 | 105.29774 | 35856 ft | 464 kts | 296° |
| 2026-04-25 22:42 | 27.95505 | 105.23297 | 35862 ft | 464 kts | 297° |
| 2026-04-25 22:42 | 27.99244 | 105.17406 | 35856 ft | 467 kts | 312° |
| 2026-04-25 22:43 | 28.04359 | 105.12835 | 35861 ft | 471 kts | 324° |
| 2026-04-25 22:43 | 28.09920 | 105.08890 | 35838 ft | 473 kts | 326° |
| 2026-04-25 22:44 | 28.15550 | 105.05020 | 35841 ft | 473 kts | 326° |
| 2026-04-25 22:44 | 28.21162 | 105.01131 | 35828 ft | 473 kts | 326° |
| 2026-04-25 22:45 | 28.26765 | 104.97213 | 35824 ft | 473 kts | 326° |
| 2026-04-25 22:45 | 28.32362 | 104.93284 | 35816 ft | 473 kts | 326° |
| 2026-04-25 22:46 | 28.37950 | 104.89357 | 35817 ft | 471 kts | 326° |
| 2026-04-25 22:46 | 28.43528 | 104.85453 | 35824 ft | 471 kts | 326° |
| 2026-04-25 22:47 | 28.49109 | 104.81552 | 35811 ft | 471 kts | 326° |
| 2026-04-25 22:47 | 28.54693 | 104.77644 | 35818 ft | 471 kts | 326° |
| 2026-04-25 22:48 | 28.60236 | 104.73759 | 35817 ft | 471 kts | 326° |
| 2026-04-25 22:48 | 28.65829 | 104.69834 | 35814 ft | 471 kts | 326° |
| 2026-04-25 22:49 | 28.71409 | 104.65913 | 35805 ft | 471 kts | 326° |
| 2026-04-25 22:49 | 28.76990 | 104.61987 | 35815 ft | 471 kts | 326° |
| 2026-04-25 22:50 | 28.82583 | 104.58047 | 35812 ft | 472 kts | 326° |
| 2026-04-25 22:50 | 28.88162 | 104.54114 | 35813 ft | 472 kts | 326° |
| 2026-04-25 22:51 | 28.93735 | 104.50144 | 35821 ft | 472 kts | 326° |
| 2026-04-25 22:51 | 28.99268 | 104.46189 | 35820 ft | 472 kts | 326° |
| 2026-04-25 22:52 | 29.04836 | 104.42211 | 35824 ft | 472 kts | 326° |
| 2026-04-25 22:52 | 29.09478 | 104.38894 | 35818 ft | 474 kts | 326° |
| 2026-04-25 22:53 | 29.16018 | 104.34216 | 35826 ft | 475 kts | 326° |
| 2026-04-25 22:53 | 29.21659 | 104.30268 | 35828 ft | 476 kts | 330° |
| 2026-04-25 22:54 | 29.27882 | 104.27688 | 35826 ft | 480 kts | 347° |
| 2026-04-25 22:54 | 29.34590 | 104.27440 | 35846 ft | 487 kts | 4° |
| 2026-04-25 22:55 | 29.41334 | 104.28466 | 35839 ft | 491 kts | 6° |
| 2026-04-25 22:55 | 29.48098 | 104.29678 | 35836 ft | 492 kts | 6° |
| 2026-04-25 22:56 | 29.54817 | 104.30869 | 35844 ft | 491 kts | 6° |
| 2026-04-25 22:56 | 29.61579 | 104.32033 | 35850 ft | 491 kts | 6° |
| 2026-04-25 22:57 | 29.68357 | 104.33187 | 35847 ft | 491 kts | 6° |
| 2026-04-25 22:57 | 29.75121 | 104.34339 | 35851 ft | 491 kts | 6° |
| 2026-04-25 22:58 | 29.81879 | 104.35494 | 35851 ft | 491 kts | 6° |
| 2026-04-25 22:58 | 29.88595 | 104.36643 | 35848 ft | 491 kts | 6° |
| 2026-04-25 22:59 | 29.95358 | 104.37803 | 35852 ft | 491 kts | 6° |
| 2026-04-25 22:59 | 30.02118 | 104.38964 | 35850 ft | 491 kts | 6° |
| 2026-04-25 23:00 | 30.08879 | 104.40127 | 35858 ft | 491 kts | 6° |
| 2026-04-25 23:00 | 30.15644 | 104.41294 | 35857 ft | 491 kts | 6° |
| 2026-04-25 23:01 | 30.22409 | 104.42473 | 35865 ft | 491 kts | 6° |
| 2026-04-25 23:01 | 30.29142 | 104.43646 | 35856 ft | 491 kts | 6° |
| 2026-04-25 23:02 | 30.35905 | 104.44826 | 35859 ft | 491 kts | 6° |
| 2026-04-25 23:02 | 30.42667 | 104.46008 | 35858 ft | 491 kts | 6° |
| 2026-04-25 23:03 | 30.49440 | 104.47194 | 35856 ft | 491 kts | 6° |
| 2026-04-25 23:03 | 30.56200 | 104.48337 | 35862 ft | 490 kts | 2° |
| 2026-04-25 23:04 | 30.61824 | 104.48241 | 35869 ft | 484 kts | 348° |
| 2026-04-25 23:04 | 30.69368 | 104.45923 | 35866 ft | 480 kts | 340° |
| 2026-04-25 23:05 | 30.75678 | 104.43494 | 35868 ft | 479 kts | 339° |
| 2026-04-25 23:05 | 30.81996 | 104.41017 | 35867 ft | 479 kts | 339° |
| 2026-04-25 23:06 | 30.88470 | 104.39158 | 35859 ft | 483 kts | 352° |
| 2026-04-25 23:06 | 30.95190 | 104.38725 | 35859 ft | 485 kts | 355° |
| 2026-04-25 23:07 | 31.01945 | 104.38555 | 35858 ft | 486 kts | 355° |
| 2026-04-25 23:07 | 31.08732 | 104.38414 | 35857 ft | 488 kts | 355° |
| 2026-04-25 23:08 | 31.15522 | 104.38251 | 35858 ft | 488 kts | 355° |
| 2026-04-25 23:08 | 31.22270 | 104.38075 | 35862 ft | 488 kts | 355° |
| 2026-04-25 23:09 | 31.29076 | 104.37855 | 35863 ft | 487 kts | 353° |
| 2026-04-25 23:09 | 31.35839 | 104.37439 | 35862 ft | 486 kts | 352° |
| 2026-04-25 23:10 | 31.42596 | 104.36994 | 35868 ft | 486 kts | 352° |
| 2026-04-25 23:10 | 31.49366 | 104.36579 | 35875 ft | 487 kts | 352° |
| 2026-04-25 23:11 | 31.56135 | 104.36181 | 35879 ft | 486 kts | 352° |
| 2026-04-25 23:11 | 31.62859 | 104.35791 | 35903 ft | 483 kts | 352° |
| 2026-04-25 23:12 | 31.69534 | 104.35400 | 35919 ft | 483 kts | 352° |
| 2026-04-25 23:12 | 31.76238 | 104.35005 | 35917 ft | 483 kts | 352° |
| 2026-04-25 23:13 | 31.82962 | 104.34641 | 35932 ft | 482 kts | 353° |
| 2026-04-25 23:13 | 31.89641 | 104.34307 | 35930 ft | 478 kts | 352° |
| 2026-04-25 23:14 | 31.96291 | 104.33969 | 35944 ft | 478 kts | 352° |
| 2026-04-25 23:14 | 32.02936 | 104.33630 | 35947 ft | 478 kts | 352° |
| 2026-04-25 23:15 | 32.09547 | 104.33290 | 35956 ft | 477 kts | 353° |
| 2026-04-25 23:15 | 32.16142 | 104.32952 | 35954 ft | 473 kts | 353° |
| 2026-04-25 23:16 | 32.22716 | 104.32613 | 35959 ft | 473 kts | 353° |
| 2026-04-25 23:16 | 32.29303 | 104.32273 | 35968 ft | 473 kts | 353° |
| 2026-04-25 23:17 | 32.35874 | 104.31936 | 35972 ft | 473 kts | 352° |
| 2026-04-25 23:17 | 32.42461 | 104.31609 | 35973 ft | 475 kts | 353° |
| 2026-04-25 23:18 | 32.49070 | 104.31287 | 35986 ft | 475 kts | 352° |
| 2026-04-25 23:18 | 32.55669 | 104.30966 | 35992 ft | 475 kts | 353° |
| 2026-04-25 23:19 | 32.62278 | 104.30649 | 35993 ft | 475 kts | 353° |
| 2026-04-25 23:19 | 32.68828 | 104.30332 | 35991 ft | 473 kts | 352° |
| 2026-04-25 23:20 | 32.75408 | 104.30017 | 35994 ft | 473 kts | 352° |
| 2026-04-25 23:20 | 32.81987 | 104.29704 | 35986 ft | 472 kts | 353° |
| 2026-04-25 23:21 | 32.88562 | 104.29412 | 35999 ft | 473 kts | 353° |
| 2026-04-25 23:21 | 32.94035 | 104.29139 | 35997 ft | 472 kts | 353° |
| 2026-04-25 23:22 | 33.00602 | 104.28819 | 35988 ft | 472 kts | 353° |
| 2026-04-25 23:23 | 33.10451 | 104.28346 | 35996 ft | 472 kts | 353° |
| 2026-04-25 23:23 | 33.17023 | 104.28029 | 35988 ft | 472 kts | 352° |
| 2026-04-25 23:24 | 33.23584 | 104.27688 | 35997 ft | 472 kts | 352° |
| 2026-04-25 23:24 | 33.30148 | 104.27353 | 35995 ft | 471 kts | 352° |
| 2026-04-25 23:25 | 33.36465 | 104.25962 | 35996 ft | 460 kts | 336° |
| 2026-04-25 23:25 | 33.42207 | 104.22734 | 36003 ft | 454 kts | 328° |
| 2026-04-25 23:26 | 33.47715 | 104.19020 | 35991 ft | 454 kts | 327° |
| 2026-04-25 23:26 | 33.53200 | 104.15236 | 35998 ft | 456 kts | 326° |
| 2026-04-25 23:27 | 33.59025 | 104.12182 | 35997 ft | 462 kts | 340° |
| 2026-04-25 23:27 | 33.65461 | 104.11167 | 35996 ft | 471 kts | 353° |
| 2026-04-25 23:28 | 33.72041 | 104.11100 | 35993 ft | 472 kts | 355° |
| 2026-04-25 23:28 | 33.78596 | 104.11155 | 35993 ft | 471 kts | 355° |
| 2026-04-25 23:29 | 33.85105 | 104.11188 | 35997 ft | 471 kts | 354° |
| 2026-04-25 23:29 | 33.91656 | 104.11204 | 35989 ft | 471 kts | 354° |
| 2026-04-25 23:30 | 33.98196 | 104.11208 | 35993 ft | 469 kts | 354° |
| 2026-04-25 23:30 | 34.04718 | 104.11181 | 35996 ft | 468 kts | 354° |
| 2026-04-25 23:31 | 34.11245 | 104.11173 | 35999 ft | 469 kts | 354° |
| 2026-04-25 23:31 | 34.17724 | 104.11177 | 36027 ft | 468 kts | 354° |
| 2026-04-25 23:32 | 34.24236 | 104.11190 | 36012 ft | 468 kts | 354° |
| 2026-04-25 23:32 | 34.30750 | 104.11195 | 36013 ft | 468 kts | 354° |
| 2026-04-25 23:33 | 34.37264 | 104.11195 | 36023 ft | 468 kts | 354° |
| 2026-04-25 23:33 | 34.43772 | 104.11193 | 36036 ft | 468 kts | 354° |
| 2026-04-25 23:34 | 34.50281 | 104.11191 | 36028 ft | 467 kts | 354° |
| 2026-04-25 23:34 | 34.56783 | 104.11192 | 36033 ft | 467 kts | 354° |
| 2026-04-25 23:35 | 34.63236 | 104.11193 | 36041 ft | 467 kts | 354° |
| 2026-04-25 23:35 | 34.69736 | 104.11190 | 36045 ft | 467 kts | 354° |
| 2026-04-25 23:36 | 34.76242 | 104.11189 | 36042 ft | 467 kts | 354° |
| 2026-04-25 23:36 | 34.82749 | 104.11192 | 36045 ft | 467 kts | 354° |
| 2026-04-25 23:37 | 34.89265 | 104.11196 | 36045 ft | 467 kts | 354° |
| 2026-04-25 23:37 | 34.95773 | 104.11196 | 36052 ft | 467 kts | 354° |
| 2026-04-25 23:38 | 35.02287 | 104.11195 | 36046 ft | 467 kts | 354° |
| 2026-04-25 23:38 | 35.08744 | 104.11194 | 36049 ft | 468 kts | 354° |
| 2026-04-25 23:39 | 35.15259 | 104.11193 | 36055 ft | 467 kts | 354° |
| 2026-04-25 23:39 | 35.21764 | 104.11193 | 36055 ft | 468 kts | 354° |
| 2026-04-25 23:40 | 35.28289 | 104.11192 | 36057 ft | 468 kts | 354° |
| 2026-04-25 23:40 | 35.34793 | 104.11193 | 36065 ft | 468 kts | 354° |
| 2026-04-25 23:41 | 35.41308 | 104.11193 | 36070 ft | 468 kts | 354° |
| 2026-04-25 23:41 | 35.47822 | 104.11193 | 36065 ft | 468 kts | 354° |
| 2026-04-25 23:42 | 35.54335 | 104.11207 | 36068 ft | 468 kts | 354° |
| 2026-04-25 23:42 | 35.60848 | 104.11236 | 36066 ft | 468 kts | 354° |
| 2026-04-25 23:43 | 35.67326 | 104.11265 | 36075 ft | 468 kts | 354° |
| 2026-04-25 23:43 | 35.73837 | 104.11294 | 36071 ft | 468 kts | 354° |
| 2026-04-25 23:44 | 35.80352 | 104.11322 | 36075 ft | 468 kts | 354° |
| 2026-04-25 23:44 | 35.86821 | 104.10902 | 36079 ft | 464 kts | 349° |
| 2026-04-25 23:45 | 35.93241 | 104.10230 | 36089 ft | 463 kts | 349° |
| 2026-04-25 23:45 | 35.99659 | 104.09518 | 36083 ft | 462 kts | 349° |
| 2026-04-25 23:46 | 36.06022 | 104.08812 | 36085 ft | 461 kts | 349° |
| 2026-04-25 23:46 | 36.12429 | 104.08107 | 36093 ft | 461 kts | 349° |
| 2026-04-25 23:47 | 36.18826 | 104.07405 | 36090 ft | 460 kts | 349° |
| 2026-04-25 23:47 | 36.25192 | 104.06709 | 36099 ft | 459 kts | 349° |
| 2026-04-25 23:48 | 36.31553 | 104.06021 | 36102 ft | 459 kts | 349° |
| 2026-04-25 23:48 | 36.37923 | 104.05323 | 36102 ft | 459 kts | 349° |
| 2026-04-25 23:49 | 36.44237 | 104.04623 | 36101 ft | 458 kts | 348° |
| 2026-04-25 23:49 | 36.50538 | 104.03754 | 36107 ft | 452 kts | 342° |
| 2026-04-25 23:50 | 36.56402 | 104.01310 | 36108 ft | 439 kts | 328° |
| 2026-04-25 23:50 | 36.61320 | 103.96968 | 36111 ft | 431 kts | 313° |
| 2026-04-25 23:51 | 36.64935 | 103.91095 | 36127 ft | 427 kts | 300° |
| 2026-04-25 23:51 | 36.67886 | 103.84674 | 36123 ft | 426 kts | 298° |
| 2026-04-25 23:52 | 36.70741 | 103.78263 | 36140 ft | 425 kts | 298° |
| 2026-04-25 23:52 | 36.73663 | 103.71856 | 36144 ft | 425 kts | 299° |
| 2026-04-25 23:53 | 36.76618 | 103.65470 | 36143 ft | 425 kts | 299° |
| 2026-04-25 23:53 | 36.79583 | 103.59072 | 36157 ft | 425 kts | 299° |
| 2026-04-25 23:54 | 36.82539 | 103.52678 | 36154 ft | 425 kts | 299° |
| 2026-04-25 23:54 | 36.85488 | 103.46280 | 36170 ft | 425 kts | 299° |
| 2026-04-25 23:55 | 36.88437 | 103.39870 | 36169 ft | 425 kts | 299° |
| 2026-04-25 23:55 | 36.91352 | 103.33519 | 36175 ft | 425 kts | 299° |
| 2026-04-25 23:56 | 36.94296 | 103.27106 | 36177 ft | 425 kts | 299° |
| 2026-04-25 23:56 | 36.97411 | 103.20820 | 36175 ft | 425 kts | 302° |
| 2026-04-25 23:57 | 37.00610 | 103.14611 | 36173 ft | 423 kts | 302° |
| 2026-04-25 23:57 | 37.03774 | 103.08402 | 36180 ft | 423 kts | 301° |
| 2026-04-25 23:58 | 37.06900 | 103.02191 | 36187 ft | 424 kts | 301° |
| 2026-04-25 23:58 | 37.10034 | 102.95934 | 36191 ft | 424 kts | 301° |
| 2026-04-25 23:59 | 37.13164 | 102.89673 | 36192 ft | 424 kts | 301° |
| 2026-04-25 23:59 | 37.16300 | 102.83390 | 36193 ft | 424 kts | 301° |
| 2026-04-26 00:00 | 37.19424 | 102.77122 | 36201 ft | 424 kts | 300° |
| 2026-04-26 00:00 | 37.22535 | 102.70866 | 36194 ft | 425 kts | 301° |
| 2026-04-26 00:01 | 37.25662 | 102.64564 | 36193 ft | 426 kts | 301° |
| 2026-04-26 00:01 | 37.28789 | 102.58251 | 36212 ft | 425 kts | 301° |
| 2026-04-26 00:02 | 37.31910 | 102.51941 | 36183 ft | 425 kts | 301° |
| 2026-04-26 00:02 | 37.34917 | 102.45559 | 36200 ft | 424 kts | 295° |
| 2026-04-26 00:03 | 37.36897 | 102.38583 | 36180 ft | 424 kts | 286° |
| 2026-04-26 00:03 | 37.38368 | 102.31392 | 36193 ft | 424 kts | 285° |
| 2026-04-26 00:04 | 37.39750 | 102.24216 | 36180 ft | 424 kts | 284° |
| 2026-04-26 00:04 | 37.41143 | 102.16988 | 36174 ft | 424 kts | 285° |
| 2026-04-26 00:05 | 37.42541 | 102.09784 | 36189 ft | 423 kts | 285° |
| 2026-04-26 00:05 | 37.43930 | 102.02635 | 36167 ft | 423 kts | 284° |
| 2026-04-26 00:06 | 37.45339 | 101.95381 | 36178 ft | 428 kts | 285° |
| 2026-04-26 00:06 | 37.46737 | 101.88108 | 36167 ft | 427 kts | 284° |
| 2026-04-26 00:07 | 37.48130 | 101.80845 | 36163 ft | 426 kts | 285° |
| 2026-04-26 00:07 | 37.49518 | 101.73587 | 36154 ft | 426 kts | 284° |
| 2026-04-26 00:08 | 37.51428 | 101.66559 | 36146 ft | 425 kts | 296° |
| 2026-04-26 00:08 | 37.54116 | 101.59957 | 36152 ft | 427 kts | 297° |
| 2026-04-26 00:09 | 37.56947 | 101.53354 | 36152 ft | 429 kts | 297° |
| 2026-04-26 00:09 | 37.59788 | 101.46742 | 36151 ft | 427 kts | 297° |
| 2026-04-26 00:10 | 37.62601 | 101.40141 | 36141 ft | 427 kts | 297° |
| 2026-04-26 00:10 | 37.65401 | 101.33535 | 36158 ft | 427 kts | 297° |
| 2026-04-26 00:11 | 37.67719 | 101.28055 | 36140 ft | 425 kts | 297° |
| 2026-04-26 00:11 | 37.70505 | 101.21462 | 36141 ft | 425 kts | 296° |
| 2026-04-26 00:12 | 37.73283 | 101.14873 | 36143 ft | 425 kts | 296° |
| 2026-04-26 00:12 | 37.76066 | 101.08255 | 36139 ft | 426 kts | 296° |
| 2026-04-26 00:13 | 37.78827 | 101.01683 | 36141 ft | 425 kts | 297° |
| 2026-04-26 00:13 | 37.81592 | 100.95065 | 36135 ft | 425 kts | 296° |
| 2026-04-26 00:14 | 37.84377 | 100.88465 | 36136 ft | 425 kts | 297° |
| 2026-04-26 00:14 | 37.87303 | 100.81954 | 36142 ft | 426 kts | 298° |
| 2026-04-26 00:15 | 37.90251 | 100.75447 | 36148 ft | 426 kts | 298° |
| 2026-04-26 00:15 | 37.93171 | 100.68926 | 36149 ft | 426 kts | 298° |
| 2026-04-26 00:16 | 37.96073 | 100.62394 | 36149 ft | 424 kts | 298° |
| 2026-04-26 00:16 | 37.98954 | 100.55890 | 36157 ft | 422 kts | 297° |
| 2026-04-26 00:17 | 38.01806 | 100.49442 | 36158 ft | 422 kts | 297° |
| 2026-04-26 00:17 | 38.04676 | 100.42935 | 36159 ft | 422 kts | 297° |
| 2026-04-26 00:18 | 38.07546 | 100.36420 | 36167 ft | 422 kts | 297° |
| 2026-04-26 00:18 | 38.10406 | 100.29913 | 36167 ft | 422 kts | 297° |
| 2026-04-26 00:19 | 38.13240 | 100.23446 | 36176 ft | 423 kts | 297° |
| 2026-04-26 00:19 | 38.16102 | 100.16914 | 36166 ft | 422 kts | 297° |
| 2026-04-26 00:20 | 38.18955 | 100.10385 | 36168 ft | 422 kts | 297° |
| 2026-04-26 00:20 | 38.21804 | 100.03855 | 36169 ft | 422 kts | 297° |
| 2026-04-26 00:21 | 38.24647 | 99.97322 | 36177 ft | 421 kts | 297° |
| 2026-04-26 00:21 | 38.27469 | 99.90833 | 36171 ft | 418 kts | 298° |
| 2026-04-26 00:22 | 38.30277 | 99.84356 | 36170 ft | 417 kts | 297° |
| 2026-04-26 00:22 | 38.33072 | 99.77884 | 36169 ft | 417 kts | 297° |
| 2026-04-26 00:23 | 38.35850 | 99.71438 | 36169 ft | 417 kts | 297° |
| 2026-04-26 00:23 | 38.38645 | 99.64950 | 36174 ft | 417 kts | 297° |
| 2026-04-26 00:24 | 38.41435 | 99.58468 | 36172 ft | 417 kts | 297° |
| 2026-04-26 00:24 | 38.44225 | 99.51960 | 36173 ft | 417 kts | 296° |
| 2026-04-26 00:25 | 38.46994 | 99.45479 | 36170 ft | 416 kts | 296° |
| 2026-04-26 00:25 | 38.49776 | 99.38968 | 36180 ft | 418 kts | 296° |
| 2026-04-26 00:26 | 38.52555 | 99.32440 | 36181 ft | 419 kts | 296° |
| 2026-04-26 00:26 | 38.55327 | 99.25930 | 36176 ft | 419 kts | 296° |
| 2026-04-26 00:27 | 38.58097 | 99.19387 | 36181 ft | 418 kts | 296° |
| 2026-04-26 00:27 | 38.60867 | 99.12857 | 36184 ft | 417 kts | 296° |
| 2026-04-26 00:28 | 38.63631 | 99.06328 | 36185 ft | 418 kts | 296° |
| 2026-04-26 00:28 | 38.66400 | 98.99765 | 36183 ft | 419 kts | 296° |
| 2026-04-26 00:29 | 38.69151 | 98.93230 | 36184 ft | 420 kts | 296° |
| 2026-04-26 00:29 | 38.71918 | 98.86644 | 36188 ft | 419 kts | 296° |
| 2026-04-26 00:30 | 38.74681 | 98.80059 | 36187 ft | 419 kts | 296° |
| 2026-04-26 00:30 | 38.77444 | 98.73460 | 36192 ft | 419 kts | 296° |
| 2026-04-26 00:31 | 38.80192 | 98.66880 | 36219 ft | 419 kts | 295° |
| 2026-04-26 00:31 | 38.82935 | 98.60292 | 36199 ft | 418 kts | 295° |
| 2026-04-26 00:32 | 38.85659 | 98.53725 | 36195 ft | 417 kts | 295° |
| 2026-04-26 00:32 | 38.89746 | 98.43864 | 36193 ft | 417 kts | 295° |
| 2026-04-26 00:33 | 38.92472 | 98.37276 | 36198 ft | 417 kts | 295° |
| 2026-04-26 00:33 | 38.95171 | 98.30735 | 36193 ft | 418 kts | 295° |
| 2026-04-26 00:34 | 38.97893 | 98.24121 | 36197 ft | 419 kts | 295° |
| 2026-04-26 00:34 | 39.00621 | 98.17482 | 36198 ft | 419 kts | 295° |
| 2026-04-26 00:35 | 39.03341 | 98.10848 | 36195 ft | 419 kts | 295° |
| 2026-04-26 00:35 | 39.06059 | 98.04205 | 36196 ft | 419 kts | 295° |
| 2026-04-26 00:36 | 39.08775 | 97.97557 | 36207 ft | 419 kts | 295° |
| 2026-04-26 00:36 | 39.11473 | 97.90925 | 36199 ft | 419 kts | 295° |
| 2026-04-26 00:37 | 39.14186 | 97.84297 | 36194 ft | 419 kts | 296° |
| 2026-04-26 00:37 | 39.16888 | 97.77635 | 36203 ft | 420 kts | 295° |
| 2026-04-26 00:38 | 39.19577 | 97.70959 | 36203 ft | 419 kts | 295° |
| 2026-04-26 00:38 | 39.22264 | 97.64292 | 36206 ft | 419 kts | 295° |
| 2026-04-26 00:39 | 39.24955 | 97.57626 | 36188 ft | 419 kts | 295° |
| 2026-04-26 00:39 | 39.27639 | 97.50979 | 36200 ft | 421 kts | 295° |
| 2026-04-26 00:40 | 39.30346 | 97.44262 | 36199 ft | 421 kts | 295° |
| 2026-04-26 00:40 | 39.33047 | 97.37542 | 36196 ft | 421 kts | 295° |
| 2026-04-26 00:41 | 39.35744 | 97.30825 | 36201 ft | 421 kts | 295° |
| 2026-04-26 00:41 | 39.38439 | 97.24087 | 36185 ft | 422 kts | 295° |
| 2026-04-26 00:42 | 39.41136 | 97.17333 | 36189 ft | 422 kts | 295° |
| 2026-04-26 00:42 | 39.43804 | 97.10630 | 36188 ft | 422 kts | 295° |
| 2026-04-26 00:43 | 39.46485 | 97.03885 | 36178 ft | 422 kts | 295° |
| 2026-04-26 00:43 | 39.49187 | 96.97136 | 36182 ft | 422 kts | 295° |
| 2026-04-26 00:44 | 39.51891 | 96.90390 | 36179 ft | 422 kts | 295° |
| 2026-04-26 00:44 | 39.54592 | 96.83637 | 36176 ft | 422 kts | 295° |
| 2026-04-26 00:45 | 39.56830 | 96.78031 | 36173 ft | 422 kts | 295° |
| 2026-04-26 00:45 | 39.59961 | 96.70165 | 36170 ft | 422 kts | 295° |
| 2026-04-26 00:46 | 39.62653 | 96.63388 | 36181 ft | 423 kts | 295° |
| 2026-04-26 00:46 | 39.65339 | 96.56600 | 36181 ft | 423 kts | 294° |
| 2026-04-26 00:47 | 39.68007 | 96.49814 | 36157 ft | 422 kts | 294° |
| 2026-04-26 00:47 | 39.70676 | 96.43011 | 36155 ft | 422 kts | 294° |
| 2026-04-26 00:48 | 39.73343 | 96.36201 | 36150 ft | 423 kts | 294° |
| 2026-04-26 00:48 | 39.76005 | 96.29391 | 36154 ft | 423 kts | 294° |
| 2026-04-26 00:49 | 39.78652 | 96.22607 | 36123 ft | 423 kts | 294° |
| 2026-04-26 00:49 | 39.81309 | 96.15779 | 36120 ft | 423 kts | 294° |
| 2026-04-26 00:50 | 39.83964 | 96.08942 | 36123 ft | 423 kts | 294° |
| 2026-04-26 00:50 | 39.86612 | 96.02106 | 36121 ft | 424 kts | 293° |
| 2026-04-26 00:51 | 39.89270 | 95.95230 | 36098 ft | 424 kts | 293° |
| 2026-04-26 00:51 | 39.91903 | 95.88403 | 36098 ft | 424 kts | 293° |
| 2026-04-26 00:52 | 39.94552 | 95.81521 | 36098 ft | 424 kts | 293° |
| 2026-04-26 00:52 | 39.97191 | 95.74645 | 36099 ft | 424 kts | 293° |
| 2026-04-26 00:53 | 39.99823 | 95.67771 | 36084 ft | 424 kts | 293° |
| 2026-04-26 00:53 | 40.02461 | 95.60866 | 36084 ft | 426 kts | 293° |
| 2026-04-26 00:54 | 40.05083 | 95.53988 | 36094 ft | 426 kts | 293° |
| 2026-04-26 00:54 | 40.07718 | 95.47061 | 36078 ft | 426 kts | 293° |
| 2026-04-26 00:55 | 40.10350 | 95.40126 | 36072 ft | 426 kts | 292° |
| 2026-04-26 00:55 | 40.12979 | 95.33182 | 36060 ft | 426 kts | 292° |
| 2026-04-26 00:56 | 40.15609 | 95.26218 | 36068 ft | 427 kts | 292° |
| 2026-04-26 00:56 | 40.18234 | 95.19250 | 36068 ft | 427 kts | 292° |
| 2026-04-26 00:57 | 40.20858 | 95.12277 | 36064 ft | 428 kts | 292° |
| 2026-04-26 00:57 | 40.23062 | 95.06483 | 36065 ft | 428 kts | 292° |
| 2026-04-26 00:58 | 40.26168 | 94.98335 | 36061 ft | 428 kts | 292° |
| 2026-04-26 00:58 | 40.28372 | 94.92534 | 36060 ft | 428 kts | 292° |
| 2026-04-26 00:59 | 40.31892 | 94.84649 | 36063 ft | 437 kts | 302° |
| 2026-04-26 00:59 | 40.34995 | 94.79347 | 36061 ft | 438 kts | 303° |
| 2026-04-26 01:00 | 40.38773 | 94.73122 | 36077 ft | 439 kts | 303° |
| 2026-04-26 01:00 | 40.42570 | 94.66891 | 36064 ft | 436 kts | 303° |
| 2026-04-26 01:01 | 40.46344 | 94.60655 | 36062 ft | 436 kts | 303° |
| 2026-04-26 01:01 | 40.50106 | 94.54408 | 36066 ft | 437 kts | 303° |
| 2026-04-26 01:02 | 40.53889 | 94.48109 | 36066 ft | 439 kts | 303° |
| 2026-04-26 01:02 | 40.57648 | 94.41842 | 36069 ft | 439 kts | 303° |
| 2026-04-26 01:03 | 40.61453 | 94.35487 | 36103 ft | 439 kts | 303° |
| 2026-04-26 01:03 | 40.65205 | 94.29207 | 36073 ft | 438 kts | 303° |
| 2026-04-26 01:04 | 40.68966 | 94.22899 | 36073 ft | 437 kts | 303° |
| 2026-04-26 01:04 | 40.72720 | 94.16587 | 36070 ft | 438 kts | 303° |
| 2026-04-26 01:05 | 40.76491 | 94.10235 | 36088 ft | 440 kts | 303° |
| 2026-04-26 01:05 | 40.80266 | 94.03863 | 36087 ft | 440 kts | 303° |
| 2026-04-26 01:06 | 40.84008 | 93.97536 | 36078 ft | 440 kts | 303° |
| 2026-04-26 01:06 | 40.87774 | 93.91153 | 36088 ft | 440 kts | 303° |
| 2026-04-26 01:07 | 40.91541 | 93.84756 | 36088 ft | 441 kts | 303° |
| 2026-04-26 01:07 | 40.95451 | 93.78483 | 36085 ft | 443 kts | 306° |
| 2026-04-26 01:08 | 40.99517 | 93.72311 | 36086 ft | 445 kts | 306° |
| 2026-04-26 01:08 | 41.03571 | 93.66113 | 36089 ft | 445 kts | 306° |
| 2026-04-26 01:09 | 41.07603 | 93.59869 | 36092 ft | 445 kts | 305° |
| 2026-04-26 01:09 | 41.11593 | 93.53650 | 36091 ft | 445 kts | 305° |
| 2026-04-26 01:10 | 41.15599 | 93.47389 | 36089 ft | 445 kts | 305° |
| 2026-04-26 01:10 | 41.19606 | 93.41117 | 36089 ft | 445 kts | 305° |
| 2026-04-26 01:11 | 41.23605 | 93.34847 | 36092 ft | 445 kts | 305° |
| 2026-04-26 01:11 | 41.27585 | 93.28593 | 36091 ft | 445 kts | 305° |
| 2026-04-26 01:12 | 41.31580 | 93.22303 | 36099 ft | 445 kts | 305° |
| 2026-04-26 01:12 | 41.35581 | 93.15990 | 36091 ft | 446 kts | 305° |
| 2026-04-26 01:13 | 41.39583 | 93.09663 | 36094 ft | 446 kts | 305° |
| 2026-04-26 01:13 | 41.43580 | 93.03331 | 36093 ft | 447 kts | 305° |
| 2026-04-26 01:14 | 41.47586 | 92.96970 | 36096 ft | 448 kts | 305° |
| 2026-04-26 01:14 | 41.51589 | 92.90601 | 36097 ft | 448 kts | 305° |
| 2026-04-26 01:15 | 41.55587 | 92.84226 | 36099 ft | 447 kts | 305° |
| 2026-04-26 01:15 | 41.59571 | 92.77863 | 36096 ft | 446 kts | 305° |
| 2026-04-26 01:16 | 41.63548 | 92.71494 | 36102 ft | 446 kts | 305° |
| 2026-04-26 01:16 | 41.67519 | 92.65123 | 36097 ft | 446 kts | 305° |
| 2026-04-26 01:17 | 41.71467 | 92.58773 | 36097 ft | 447 kts | 305° |
| 2026-04-26 01:17 | 41.75447 | 92.52360 | 36114 ft | 447 kts | 305° |
| 2026-04-26 01:18 | 41.79414 | 92.45954 | 36095 ft | 446 kts | 305° |
| 2026-04-26 01:18 | 41.83376 | 92.39543 | 36094 ft | 446 kts | 305° |
| 2026-04-26 01:19 | 41.87339 | 92.33115 | 36095 ft | 446 kts | 305° |
| 2026-04-26 01:19 | 41.91293 | 92.26688 | 36097 ft | 447 kts | 305° |
| 2026-04-26 01:20 | 41.95260 | 92.20226 | 36092 ft | 449 kts | 305° |
| 2026-04-26 01:20 | 41.99205 | 92.13787 | 36103 ft | 450 kts | 305° |
| 2026-04-26 01:21 | 42.03209 | 92.07237 | 36092 ft | 450 kts | 305° |
| 2026-04-26 01:21 | 42.07158 | 92.00764 | 36089 ft | 450 kts | 305° |
| 2026-04-26 01:22 | 42.11134 | 91.94232 | 36092 ft | 450 kts | 305° |
| 2026-04-26 01:22 | 42.15106 | 91.87691 | 36102 ft | 451 kts | 305° |
| 2026-04-26 01:23 | 42.19084 | 91.81127 | 36119 ft | 452 kts | 305° |
| 2026-04-26 01:23 | 42.23139 | 91.74634 | 36100 ft | 455 kts | 310° |
| 2026-04-26 01:24 | 42.27641 | 91.68685 | 36095 ft | 456 kts | 311° |
| 2026-04-26 01:24 | 42.32252 | 91.62787 | 36103 ft | 456 kts | 312° |
| 2026-04-26 01:25 | 42.36866 | 91.56905 | 36097 ft | 456 kts | 312° |
| 2026-04-26 01:25 | 42.41489 | 91.50987 | 36121 ft | 456 kts | 311° |
| 2026-04-26 01:26 | 42.46034 | 91.45146 | 36103 ft | 452 kts | 311° |
| 2026-04-26 01:26 | 42.50583 | 91.39283 | 36103 ft | 452 kts | 311° |
| 2026-04-26 01:27 | 42.55133 | 91.33405 | 36094 ft | 451 kts | 311° |
| 2026-04-26 01:27 | 42.59679 | 91.27520 | 36097 ft | 452 kts | 311° |
| 2026-04-26 01:28 | 42.64220 | 91.21630 | 36086 ft | 451 kts | 311° |
| 2026-04-26 01:28 | 42.68753 | 91.15741 | 36087 ft | 451 kts | 311° |
| 2026-04-26 01:29 | 42.73287 | 91.09834 | 36089 ft | 452 kts | 311° |
| 2026-04-26 01:29 | 42.77831 | 91.03902 | 36089 ft | 453 kts | 311° |
| 2026-04-26 01:30 | 42.82344 | 90.98001 | 36088 ft | 453 kts | 311° |
| 2026-04-26 01:30 | 42.86892 | 90.92020 | 36087 ft | 453 kts | 310° |
| 2026-04-26 01:31 | 42.90737 | 90.85321 | 36091 ft | 447 kts | 300° |
| 2026-04-26 01:31 | 42.94077 | 90.78174 | 36102 ft | 446 kts | 298° |
| 2026-04-26 01:32 | 42.97335 | 90.70966 | 36101 ft | 446 kts | 298° |
| 2026-04-26 01:32 | 43.00587 | 90.63747 | 36101 ft | 446 kts | 298° |
| 2026-04-26 01:33 | 43.03829 | 90.56568 | 36132 ft | 446 kts | 298° |
| 2026-04-26 01:33 | 43.07084 | 90.49354 | 36125 ft | 446 kts | 298° |
| 2026-04-26 01:34 | 43.10342 | 90.42120 | 36131 ft | 446 kts | 298° |
| 2026-04-26 01:34 | 43.13595 | 90.34877 | 36130 ft | 447 kts | 298° |
| 2026-04-26 01:35 | 43.16851 | 90.27608 | 36134 ft | 447 kts | 298° |
| 2026-04-26 01:35 | 43.20103 | 90.20333 | 36164 ft | 448 kts | 298° |
| 2026-04-26 01:36 | 43.23333 | 90.13097 | 36166 ft | 447 kts | 298° |
| 2026-04-26 01:37 | 43.28195 | 90.02165 | 36198 ft | 447 kts | 298° |
| 2026-04-26 01:37 | 43.31440 | 89.94835 | 36195 ft | 452 kts | 298° |
| 2026-04-26 01:38 | 43.34723 | 89.87398 | 36193 ft | 459 kts | 298° |
| 2026-04-26 01:38 | 43.38046 | 89.79862 | 36222 ft | 462 kts | 298° |
| 2026-04-26 01:39 | 43.41382 | 89.72291 | 36222 ft | 463 kts | 298° |
| 2026-04-26 01:39 | 43.44715 | 89.64696 | 36232 ft | 464 kts | 298° |
| 2026-04-26 01:40 | 43.48050 | 89.57070 | 36233 ft | 465 kts | 298° |
| 2026-04-26 01:40 | 43.51384 | 89.49434 | 36242 ft | 464 kts | 298° |
| 2026-04-26 01:41 | 43.54708 | 89.41796 | 36248 ft | 464 kts | 298° |
| 2026-04-26 01:41 | 43.58052 | 89.34167 | 36245 ft | 464 kts | 299° |
| 2026-04-26 01:42 | 43.61422 | 89.26642 | 36253 ft | 464 kts | 298° |
| 2026-04-26 01:42 | 43.64818 | 89.19048 | 36261 ft | 466 kts | 298° |
| 2026-04-26 01:43 | 43.68222 | 89.11387 | 36253 ft | 468 kts | 298° |
| 2026-04-26 01:43 | 43.71621 | 89.03704 | 36260 ft | 468 kts | 298° |
| 2026-04-26 01:44 | 43.75010 | 88.96023 | 36258 ft | 468 kts | 298° |
| 2026-04-26 01:44 | 43.78402 | 88.88315 | 36258 ft | 468 kts | 298° |
| 2026-04-26 01:45 | 43.81214 | 88.81911 | 36259 ft | 469 kts | 298° |
| 2026-04-26 01:45 | 43.85147 | 88.72927 | 36257 ft | 469 kts | 298° |
| 2026-04-26 01:46 | 43.88525 | 88.65194 | 36260 ft | 469 kts | 298° |
| 2026-04-26 01:46 | 43.91330 | 88.58755 | 36257 ft | 469 kts | 298° |
| 2026-04-26 01:47 | 43.95249 | 88.49736 | 36255 ft | 468 kts | 298° |
| 2026-04-26 01:47 | 43.98063 | 88.43241 | 36255 ft | 468 kts | 298° |
| 2026-04-26 01:48 | 44.01392 | 88.35538 | 36260 ft | 467 kts | 298° |
| 2026-04-26 01:48 | 44.04734 | 88.27784 | 36250 ft | 467 kts | 298° |
| 2026-04-26 01:49 | 44.08070 | 88.20021 | 36244 ft | 468 kts | 298° |
| 2026-04-26 01:49 | 44.11410 | 88.12230 | 36238 ft | 468 kts | 298° |
| 2026-04-26 01:50 | 44.14722 | 88.04483 | 36227 ft | 468 kts | 298° |
| 2026-04-26 01:50 | 44.18221 | 87.96819 | 36224 ft | 470 kts | 303° |
| 2026-04-26 01:51 | 44.22107 | 87.89481 | 36218 ft | 471 kts | 304° |
| 2026-04-26 01:51 | 44.26050 | 87.82177 | 36215 ft | 471 kts | 304° |
| 2026-04-26 01:52 | 44.29995 | 87.74867 | 36216 ft | 471 kts | 304° |
| 2026-04-26 01:52 | 44.33930 | 87.67542 | 36216 ft | 471 kts | 304° |
| 2026-04-26 01:53 | 44.37890 | 87.60303 | 36213 ft | 472 kts | 305° |
| 2026-04-26 01:53 | 44.41908 | 87.53023 | 36214 ft | 473 kts | 306° |
| 2026-04-26 01:54 | 44.45922 | 87.45720 | 36214 ft | 473 kts | 306° |
| 2026-04-26 01:54 | 44.49925 | 87.38398 | 36213 ft | 473 kts | 306° |
| 2026-04-26 01:55 | 44.53917 | 87.31069 | 36207 ft | 473 kts | 306° |
| 2026-04-26 01:55 | 44.57956 | 87.23773 | 36214 ft | 474 kts | 307° |
| 2026-04-26 01:56 | 44.62119 | 87.16659 | 36215 ft | 474 kts | 308° |
| 2026-04-26 01:56 | 44.66315 | 87.09509 | 36217 ft | 474 kts | 308° |
| 2026-04-26 01:57 | 44.70487 | 87.02318 | 36216 ft | 474 kts | 308° |
| 2026-04-26 01:57 | 44.74655 | 86.95100 | 36213 ft | 474 kts | 308° |
| 2026-04-26 01:58 | 44.78815 | 86.87882 | 36223 ft | 474 kts | 308° |
| 2026-04-26 01:58 | 44.82941 | 86.80708 | 36214 ft | 474 kts | 308° |
| 2026-04-26 01:59 | 44.87072 | 86.73453 | 36206 ft | 474 kts | 307° |
| 2026-04-26 01:59 | 44.91152 | 86.66142 | 36195 ft | 474 kts | 307° |
| 2026-04-26 02:00 | 44.95228 | 86.58822 | 36202 ft | 474 kts | 307° |
| 2026-04-26 02:00 | 44.99303 | 86.51509 | 36212 ft | 473 kts | 308° |
| 2026-04-26 02:01 | 45.03369 | 86.44204 | 36210 ft | 473 kts | 308° |
| 2026-04-26 02:01 | 45.07431 | 86.36891 | 36210 ft | 473 kts | 308° |
| 2026-04-26 02:02 | 45.11487 | 86.29567 | 36188 ft | 473 kts | 307° |
| 2026-04-26 02:02 | 45.15523 | 86.22259 | 36188 ft | 473 kts | 307° |
| 2026-04-26 02:03 | 45.19575 | 86.14905 | 36189 ft | 473 kts | 307° |
| 2026-04-26 02:03 | 45.23614 | 86.07553 | 36198 ft | 472 kts | 308° |
| 2026-04-26 02:04 | 45.27646 | 86.00198 | 36196 ft | 472 kts | 308° |
| 2026-04-26 02:04 | 45.31669 | 85.92837 | 36219 ft | 472 kts | 308° |
| 2026-04-26 02:05 | 45.35664 | 85.85511 | 36196 ft | 471 kts | 308° |
| 2026-04-26 02:05 | 45.39677 | 85.78131 | 36189 ft | 471 kts | 308° |
| 2026-04-26 02:06 | 45.43686 | 85.70740 | 36191 ft | 471 kts | 307° |
| 2026-04-26 02:06 | 45.47688 | 85.63342 | 36191 ft | 471 kts | 307° |
| 2026-04-26 02:07 | 45.51682 | 85.55941 | 36199 ft | 471 kts | 308° |
| 2026-04-26 02:07 | 45.55670 | 85.48531 | 36198 ft | 471 kts | 307° |
| 2026-04-26 02:08 | 45.59655 | 85.41105 | 36198 ft | 471 kts | 307° |
| 2026-04-26 02:08 | 45.63611 | 85.33717 | 36206 ft | 471 kts | 307° |
| 2026-04-26 02:09 | 45.67583 | 85.26278 | 36191 ft | 470 kts | 308° |
| 2026-04-26 02:09 | 45.71557 | 85.18826 | 36198 ft | 470 kts | 308° |
| 2026-04-26 02:10 | 45.75532 | 85.11407 | 36198 ft | 469 kts | 308° |
| 2026-04-26 02:10 | 45.79506 | 85.03980 | 36198 ft | 469 kts | 308° |
| 2026-04-26 02:11 | 45.83468 | 84.96550 | 36196 ft | 469 kts | 308° |
| 2026-04-26 02:11 | 45.87426 | 84.89102 | 36207 ft | 469 kts | 308° |
| 2026-04-26 02:12 | 45.91364 | 84.81673 | 36203 ft | 468 kts | 308° |
| 2026-04-26 02:12 | 45.95304 | 84.74220 | 36206 ft | 468 kts | 308° |
| 2026-04-26 02:13 | 45.99234 | 84.66766 | 36207 ft | 468 kts | 308° |
| 2026-04-26 02:13 | 46.03157 | 84.59306 | 36207 ft | 468 kts | 308° |
| 2026-04-26 02:14 | 46.07078 | 84.51828 | 36207 ft | 468 kts | 308° |
| 2026-04-26 02:14 | 46.10975 | 84.44379 | 36207 ft | 468 kts | 308° |
| 2026-04-26 02:15 | 46.14895 | 84.36864 | 36206 ft | 469 kts | 308° |
| 2026-04-26 02:15 | 46.18812 | 84.29335 | 36224 ft | 469 kts | 308° |
| 2026-04-26 02:16 | 46.22719 | 84.21806 | 36241 ft | 469 kts | 308° |
| 2026-04-26 02:16 | 46.26625 | 84.14261 | 36222 ft | 468 kts | 308° |
| 2026-04-26 02:17 | 46.30489 | 84.06761 | 36218 ft | 468 kts | 308° |
| 2026-04-26 02:17 | 46.34352 | 83.99190 | 36210 ft | 468 kts | 307° |
| 2026-04-26 02:18 | 46.38211 | 83.91610 | 36217 ft | 467 kts | 308° |
| 2026-04-26 02:18 | 46.42061 | 83.84040 | 36219 ft | 467 kts | 308° |
| 2026-04-26 02:19 | 46.45912 | 83.76451 | 36221 ft | 466 kts | 308° |
| 2026-04-26 02:19 | 46.49749 | 83.68870 | 36217 ft | 466 kts | 307° |
| 2026-04-26 02:20 | 46.53590 | 83.61259 | 36204 ft | 466 kts | 307° |
| 2026-04-26 02:20 | 46.57425 | 83.53640 | 36204 ft | 467 kts | 307° |
| 2026-04-26 02:21 | 46.61227 | 83.46064 | 36210 ft | 467 kts | 308° |
| 2026-04-26 02:21 | 46.65052 | 83.38424 | 36214 ft | 467 kts | 307° |
| 2026-04-26 02:22 | 46.68754 | 83.30638 | 36212 ft | 468 kts | 304° |
| 2026-04-26 02:22 | 46.72162 | 83.22549 | 36211 ft | 468 kts | 303° |
| 2026-04-26 02:23 | 46.75561 | 83.14435 | 36211 ft | 468 kts | 303° |
| 2026-04-26 02:23 | 46.78980 | 83.06409 | 36196 ft | 468 kts | 304° |
| 2026-04-26 02:24 | 46.82440 | 82.98343 | 36211 ft | 469 kts | 304° |
| 2026-04-26 02:24 | 46.85626 | 82.90007 | 36209 ft | 472 kts | 295° |
| 2026-04-26 02:25 | 46.87356 | 82.80720 | 36211 ft | 477 kts | 283° |
| 2026-04-26 02:25 | 46.88396 | 82.71186 | 36212 ft | 478 kts | 281° |
| 2026-04-26 02:26 | 46.89336 | 82.61554 | 36199 ft | 478 kts | 281° |
| 2026-04-26 02:26 | 46.90279 | 82.51926 | 36211 ft | 479 kts | 281° |
| 2026-04-26 02:27 | 46.91235 | 82.42285 | 36205 ft | 479 kts | 281° |
| 2026-04-26 02:27 | 46.92192 | 82.32641 | 36205 ft | 479 kts | 281° |
| 2026-04-26 02:28 | 46.93139 | 82.23007 | 36197 ft | 479 kts | 281° |
| 2026-04-26 02:28 | 46.94078 | 82.13358 | 36195 ft | 479 kts | 281° |
| 2026-04-26 02:29 | 46.95009 | 82.03712 | 36196 ft | 478 kts | 281° |
| 2026-04-26 02:29 | 46.95925 | 81.94124 | 36189 ft | 479 kts | 281° |
| 2026-04-26 02:30 | 46.96841 | 81.84479 | 36188 ft | 479 kts | 281° |
| 2026-04-26 02:30 | 46.97735 | 81.74829 | 36179 ft | 478 kts | 280° |
| 2026-04-26 02:31 | 46.98621 | 81.65167 | 36187 ft | 477 kts | 280° |
| 2026-04-26 02:31 | 46.99500 | 81.55530 | 36193 ft | 477 kts | 280° |
| 2026-04-26 02:32 | 47.00372 | 81.45879 | 36191 ft | 477 kts | 280° |
| 2026-04-26 02:32 | 47.01236 | 81.36240 | 36187 ft | 477 kts | 280° |
| 2026-04-26 02:33 | 47.02094 | 81.26573 | 36187 ft | 478 kts | 280° |
| 2026-04-26 02:33 | 47.02936 | 81.16977 | 36186 ft | 477 kts | 280° |
| 2026-04-26 02:34 | 47.03777 | 81.07308 | 36182 ft | 477 kts | 280° |
| 2026-04-26 02:34 | 47.04613 | 80.97651 | 36184 ft | 477 kts | 280° |
| 2026-04-26 02:35 | 47.05437 | 80.88007 | 36179 ft | 476 kts | 280° |
| 2026-04-26 02:35 | 47.06245 | 80.78384 | 36181 ft | 475 kts | 280° |
| 2026-04-26 02:36 | 47.06912 | 80.70388 | 36178 ft | 475 kts | 279° |
| 2026-04-26 02:36 | 47.07710 | 80.60751 | 36178 ft | 475 kts | 279° |
| 2026-04-26 02:37 | 47.08499 | 80.51121 | 36175 ft | 475 kts | 279° |
| 2026-04-26 02:37 | 47.09280 | 80.41505 | 36173 ft | 475 kts | 279° |
| 2026-04-26 02:38 | 47.10052 | 80.31885 | 36174 ft | 475 kts | 279° |
| 2026-04-26 02:38 | 47.10816 | 80.22258 | 36173 ft | 475 kts | 279° |
| 2026-04-26 02:39 | 47.11573 | 80.12621 | 36172 ft | 475 kts | 279° |
| 2026-04-26 02:39 | 47.12320 | 80.03003 | 36171 ft | 474 kts | 279° |
| 2026-04-26 02:40 | 47.13055 | 79.93436 | 36170 ft | 474 kts | 279° |
| 2026-04-26 02:40 | 47.13787 | 79.83794 | 36172 ft | 474 kts | 279° |
| 2026-04-26 02:41 | 47.14528 | 79.74175 | 36165 ft | 473 kts | 279° |
| 2026-04-26 02:41 | 47.15270 | 79.64576 | 36159 ft | 473 kts | 278° |
| 2026-04-26 02:42 | 47.16003 | 79.54974 | 36169 ft | 472 kts | 278° |
| 2026-04-26 02:42 | 47.16722 | 79.45380 | 36163 ft | 472 kts | 278° |
| 2026-04-26 02:43 | 47.17779 | 79.31067 | 36167 ft | 472 kts | 278° |
| 2026-04-26 02:43 | 47.18478 | 79.21466 | 36154 ft | 472 kts | 278° |
| 2026-04-26 02:44 | 47.19169 | 79.11880 | 36167 ft | 471 kts | 277° |
| 2026-04-26 02:44 | 47.19831 | 79.02307 | 36159 ft | 469 kts | 277° |
| 2026-04-26 02:45 | 47.20474 | 78.92782 | 36161 ft | 467 kts | 277° |
| 2026-04-26 02:45 | 47.21110 | 78.83281 | 36157 ft | 467 kts | 277° |
| 2026-04-26 02:46 | 47.21742 | 78.73778 | 36156 ft | 467 kts | 277° |
| 2026-04-26 02:46 | 47.22366 | 78.64272 | 36151 ft | 467 kts | 277° |
| 2026-04-26 02:47 | 47.22982 | 78.54768 | 36165 ft | 467 kts | 276° |
| 2026-04-26 02:47 | 47.23585 | 78.45327 | 36143 ft | 466 kts | 276° |
| 2026-04-26 02:48 | 47.24183 | 78.35845 | 36143 ft | 461 kts | 276° |
| 2026-04-26 02:48 | 47.24767 | 78.26470 | 36138 ft | 459 kts | 276° |
| 2026-04-26 02:49 | 47.25343 | 78.17100 | 36132 ft | 459 kts | 276° |
| 2026-04-26 02:49 | 47.25911 | 78.07729 | 36132 ft | 459 kts | 276° |
| 2026-04-26 02:50 | 47.26468 | 77.98413 | 36126 ft | 459 kts | 276° |
| 2026-04-26 02:50 | 47.27022 | 77.89029 | 36125 ft | 459 kts | 276° |
| 2026-04-26 02:51 | 47.27566 | 77.79661 | 36124 ft | 459 kts | 276° |
| 2026-04-26 02:51 | 47.28103 | 77.70284 | 36125 ft | 459 kts | 276° |
| 2026-04-26 02:52 | 47.28633 | 77.60914 | 36122 ft | 459 kts | 276° |
| 2026-04-26 02:52 | 47.29152 | 77.51587 | 36118 ft | 459 kts | 276° |
| 2026-04-26 02:53 | 47.29667 | 77.42192 | 36114 ft | 459 kts | 276° |
| 2026-04-26 02:53 | 47.30173 | 77.32814 | 36116 ft | 458 kts | 275° |
| 2026-04-26 02:54 | 47.30668 | 77.23508 | 36118 ft | 458 kts | 275° |
| 2026-04-26 02:54 | 47.31158 | 77.14159 | 36117 ft | 457 kts | 275° |
| 2026-04-26 02:55 | 47.31641 | 77.04812 | 36115 ft | 457 kts | 275° |
| 2026-04-26 02:55 | 47.32449 | 76.95527 | 36111 ft | 456 kts | 280° |
| 2026-04-26 02:56 | 47.33498 | 76.86295 | 36110 ft | 456 kts | 280° |
| 2026-04-26 02:56 | 47.34500 | 76.77057 | 36108 ft | 456 kts | 279° |
| 2026-04-26 02:57 | 47.35442 | 76.67788 | 36108 ft | 456 kts | 279° |
| 2026-04-26 02:57 | 47.36351 | 76.58583 | 36098 ft | 456 kts | 279° |
| 2026-04-26 02:58 | 47.37254 | 76.49339 | 36102 ft | 455 kts | 279° |
| 2026-04-26 02:58 | 47.38154 | 76.40085 | 36098 ft | 455 kts | 278° |
| 2026-04-26 02:59 | 47.39046 | 76.30838 | 36097 ft | 455 kts | 278° |
| 2026-04-26 02:59 | 47.39932 | 76.21583 | 36101 ft | 454 kts | 278° |
| 2026-04-26 03:00 | 47.40806 | 76.12352 | 36096 ft | 453 kts | 278° |
| 2026-04-26 03:00 | 47.41672 | 76.03145 | 36092 ft | 452 kts | 278° |
| 2026-04-26 03:01 | 47.42529 | 75.93949 | 36083 ft | 452 kts | 278° |
| 2026-04-26 03:01 | 47.43374 | 75.84802 | 36088 ft | 452 kts | 277° |
| 2026-04-26 03:02 | 47.44217 | 75.75590 | 36083 ft | 452 kts | 277° |
| 2026-04-26 03:02 | 47.45053 | 75.66377 | 36084 ft | 452 kts | 277° |
| 2026-04-26 03:03 | 47.45882 | 75.57157 | 36081 ft | 452 kts | 277° |
| 2026-04-26 03:03 | 47.46703 | 75.47930 | 36074 ft | 452 kts | 277° |
| 2026-04-26 03:04 | 47.47515 | 75.38713 | 36082 ft | 452 kts | 277° |
| 2026-04-26 03:04 | 47.48316 | 75.29551 | 36075 ft | 452 kts | 277° |
| 2026-04-26 03:05 | 47.49115 | 75.20333 | 36072 ft | 452 kts | 276° |
| 2026-04-26 03:05 | 47.49904 | 75.11115 | 36072 ft | 452 kts | 276° |
| 2026-04-26 03:06 | 47.50688 | 75.01883 | 36074 ft | 451 kts | 276° |
| 2026-04-26 03:06 | 47.51463 | 74.92663 | 36062 ft | 451 kts | 276° |
| 2026-04-26 03:07 | 47.52230 | 74.83443 | 36066 ft | 451 kts | 276° |
| 2026-04-26 03:07 | 47.52992 | 74.74212 | 36053 ft | 451 kts | 275° |
| 2026-04-26 03:08 | 47.53742 | 74.65008 | 36054 ft | 451 kts | 275° |
| 2026-04-26 03:08 | 47.54483 | 74.55832 | 36047 ft | 451 kts | 275° |
| 2026-04-26 03:09 | 47.55221 | 74.46606 | 36050 ft | 451 kts | 275° |
| 2026-04-26 03:09 | 47.55950 | 74.37381 | 36039 ft | 451 kts | 275° |
| 2026-04-26 03:10 | 47.56673 | 74.28163 | 36034 ft | 450 kts | 275° |
| 2026-04-26 03:10 | 47.57385 | 74.18978 | 36024 ft | 448 kts | 274° |
| 2026-04-26 03:11 | 47.58089 | 74.09793 | 36023 ft | 448 kts | 274° |
| 2026-04-26 03:11 | 47.58784 | 74.00619 | 36020 ft | 448 kts | 274° |
| 2026-04-26 03:12 | 47.59468 | 73.91501 | 36020 ft | 448 kts | 274° |
| 2026-04-26 03:12 | 47.60150 | 73.82329 | 36012 ft | 447 kts | 274° |
| 2026-04-26 03:13 | 47.60821 | 73.73179 | 36012 ft | 446 kts | 274° |
| 2026-04-26 03:13 | 47.61484 | 73.64047 | 36013 ft | 446 kts | 274° |
| 2026-04-26 03:14 | 47.62139 | 73.54907 | 36015 ft | 446 kts | 274° |
| 2026-04-26 03:14 | 47.62787 | 73.45767 | 36004 ft | 446 kts | 274° |
| 2026-04-26 03:15 | 47.63428 | 73.36638 | 36004 ft | 445 kts | 273° |
| 2026-04-26 03:15 | 47.64057 | 73.27571 | 36026 ft | 445 kts | 273° |
| 2026-04-26 03:16 | 47.64681 | 73.18475 | 35998 ft | 443 kts | 272° |
| 2026-04-26 03:16 | 47.65295 | 73.09418 | 35994 ft | 438 kts | 272° |
| 2026-04-26 03:17 | 47.65895 | 73.00456 | 35987 ft | 436 kts | 272° |
| 2026-04-26 03:17 | 47.66487 | 72.91489 | 35982 ft | 436 kts | 272° |
| 2026-04-26 03:18 | 47.67072 | 72.82517 | 35983 ft | 436 kts | 272° |
| 2026-04-26 03:18 | 47.67650 | 72.73562 | 35983 ft | 436 kts | 272° |
| 2026-04-26 03:19 | 47.68221 | 72.64600 | 35978 ft | 436 kts | 272° |
| 2026-04-26 03:19 | 47.68786 | 72.55632 | 35969 ft | 436 kts | 272° |
| 2026-04-26 03:20 | 47.69340 | 72.46716 | 35968 ft | 436 kts | 272° |
| 2026-04-26 03:20 | 47.69891 | 72.37747 | 35957 ft | 436 kts | 272° |
| 2026-04-26 03:21 | 47.70435 | 72.28774 | 35960 ft | 436 kts | 272° |
| 2026-04-26 03:21 | 47.70971 | 72.19815 | 35948 ft | 435 kts | 271° |
| 2026-04-26 03:22 | 47.71499 | 72.10866 | 35947 ft | 434 kts | 271° |
| 2026-04-26 03:22 | 47.71932 | 72.03441 | 35943 ft | 434 kts | 271° |
| 2026-04-26 03:23 | 47.72446 | 71.94502 | 35942 ft | 434 kts | 271° |
| 2026-04-26 03:23 | 47.72954 | 71.85578 | 35926 ft | 433 kts | 271° |
| 2026-04-26 03:24 | 47.73425 | 71.76654 | 35929 ft | 433 kts | 270° |
| 2026-04-26 03:24 | 47.73784 | 71.67729 | 35924 ft | 433 kts | 269° |
| 2026-04-26 03:25 | 47.74126 | 71.58797 | 35930 ft | 433 kts | 269° |
| 2026-04-26 03:25 | 47.74476 | 71.49935 | 35917 ft | 432 kts | 269° |
| 2026-04-26 03:26 | 47.74829 | 71.41028 | 35905 ft | 432 kts | 269° |
| 2026-04-26 03:26 | 47.75176 | 71.32119 | 35899 ft | 432 kts | 269° |
| 2026-04-26 03:27 | 47.75517 | 71.23204 | 35901 ft | 432 kts | 269° |
| 2026-04-26 03:27 | 47.75851 | 71.14295 | 35897 ft | 432 kts | 268° |
| 2026-04-26 03:28 | 47.76178 | 71.05361 | 35891 ft | 433 kts | 268° |
| 2026-04-26 03:28 | 47.76495 | 70.96482 | 35877 ft | 433 kts | 268° |
| 2026-04-26 03:29 | 47.76809 | 70.87534 | 35880 ft | 433 kts | 268° |
| 2026-04-26 03:29 | 47.77116 | 70.78591 | 35870 ft | 433 kts | 268° |
| 2026-04-26 03:30 | 47.77415 | 70.69643 | 35897 ft | 433 kts | 268° |
| 2026-04-26 03:30 | 47.77710 | 70.60717 | 35861 ft | 432 kts | 268° |
| 2026-04-26 03:31 | 47.77997 | 70.51780 | 35851 ft | 432 kts | 268° |
| 2026-04-26 03:31 | 47.78269 | 70.42858 | 35851 ft | 432 kts | 268° |
| 2026-04-26 03:32 | 47.78536 | 70.33929 | 35844 ft | 432 kts | 268° |
| 2026-04-26 03:32 | 47.78798 | 70.25005 | 35844 ft | 432 kts | 268° |
| 2026-04-26 03:33 | 47.78925 | 70.20611 | 36025 ft | 430 kts | 268° |
| 2026-04-26 03:33 | 47.79054 | 70.16123 | 36399 ft | 427 kts | 267° |
| 2026-04-26 03:33 | 47.79176 | 70.11773 | 36637 ft | 426 kts | 267° |
| 2026-04-26 03:33 | 47.79298 | 70.07362 | 36813 ft | 427 kts | 267° |
| 2026-04-26 03:34 | 47.79418 | 70.02946 | 36976 ft | 427 kts | 267° |
| 2026-04-26 03:34 | 47.79535 | 69.98535 | 37150 ft | 427 kts | 267° |
| 2026-04-26 03:34 | 47.79652 | 69.94117 | 37321 ft | 427 kts | 267° |
| 2026-04-26 03:34 | 47.79767 | 69.89697 | 37496 ft | 427 kts | 267° |
| 2026-04-26 03:35 | 47.79881 | 69.85286 | 37656 ft | 427 kts | 268° |
| 2026-04-26 03:35 | 47.79993 | 69.80868 | 37787 ft | 428 kts | 268° |
| 2026-04-26 03:35 | 47.80212 | 69.72009 | 37814 ft | 428 kts | 267° |
| 2026-04-26 03:36 | 47.80425 | 69.63168 | 37822 ft | 428 kts | 267° |
| 2026-04-26 03:36 | 47.80631 | 69.54295 | 37819 ft | 428 kts | 267° |
| 2026-04-26 03:37 | 47.80829 | 69.45445 | 37826 ft | 428 kts | 267° |
| 2026-04-26 03:37 | 47.81021 | 69.36593 | 37816 ft | 428 kts | 267° |
| 2026-04-26 03:38 | 47.81205 | 69.27804 | 37818 ft | 428 kts | 267° |
| 2026-04-26 03:38 | 47.81384 | 69.18933 | 37816 ft | 429 kts | 267° |
| 2026-04-26 03:39 | 47.81556 | 69.10055 | 37847 ft | 429 kts | 267° |
| 2026-04-26 03:39 | 47.81721 | 69.01143 | 37818 ft | 432 kts | 267° |
| 2026-04-26 03:40 | 47.81881 | 68.92194 | 37821 ft | 432 kts | 267° |
| 2026-04-26 03:40 | 47.81999 | 68.83301 | 37823 ft | 431 kts | 264° |
| 2026-04-26 03:41 | 47.81426 | 68.74389 | 37820 ft | 430 kts | 259° |
| 2026-04-26 03:41 | 47.80649 | 68.65615 | 37821 ft | 430 kts | 259° |
| 2026-04-26 03:42 | 47.79830 | 68.56808 | 37821 ft | 430 kts | 259° |
| 2026-04-26 03:42 | 47.79010 | 68.47987 | 37820 ft | 430 kts | 259° |
| 2026-04-26 03:43 | 47.78190 | 68.39174 | 37817 ft | 430 kts | 259° |
| 2026-04-26 03:43 | 47.77368 | 68.30392 | 37815 ft | 432 kts | 259° |
| 2026-04-26 03:44 | 47.76536 | 68.21554 | 37817 ft | 432 kts | 259° |
| 2026-04-26 03:44 | 47.75694 | 68.12704 | 37820 ft | 432 kts | 259° |
| 2026-04-26 03:45 | 47.74847 | 68.03869 | 37822 ft | 432 kts | 259° |
| 2026-04-26 03:45 | 47.73992 | 67.95032 | 37826 ft | 432 kts | 259° |
| 2026-04-26 03:46 | 47.73135 | 67.86241 | 37829 ft | 432 kts | 259° |
| 2026-04-26 03:47 | 47.71810 | 67.72997 | 37830 ft | 431 kts | 257° |
| 2026-04-26 03:47 | 47.70545 | 67.64299 | 37828 ft | 430 kts | 254° |
| 2026-04-26 03:48 | 47.69150 | 67.55664 | 37827 ft | 431 kts | 254° |
| 2026-04-26 03:48 | 47.67797 | 67.46988 | 37844 ft | 432 kts | 255° |
| 2026-04-26 03:49 | 47.66478 | 67.38293 | 37857 ft | 432 kts | 255° |
| 2026-04-26 03:49 | 47.65165 | 67.29607 | 37856 ft | 432 kts | 255° |
| 2026-04-26 03:50 | 47.63845 | 67.20920 | 37875 ft | 432 kts | 255° |
| 2026-04-26 03:50 | 47.62520 | 67.12277 | 37889 ft | 434 kts | 255° |
| 2026-04-26 03:51 | 47.61174 | 67.03541 | 37890 ft | 435 kts | 255° |
| 2026-04-26 03:51 | 47.59822 | 66.94813 | 37900 ft | 435 kts | 255° |
| 2026-04-26 03:52 | 47.58462 | 66.86077 | 37904 ft | 435 kts | 255° |
| 2026-04-26 03:52 | 47.57094 | 66.77346 | 37970 ft | 435 kts | 255° |
| 2026-04-26 03:53 | 47.55718 | 66.68610 | 37920 ft | 435 kts | 255° |
| 2026-04-26 03:53 | 47.54292 | 66.59913 | 37935 ft | 435 kts | 255° |
| 2026-04-26 03:54 | 47.52854 | 66.51282 | 37933 ft | 435 kts | 255° |
| 2026-04-26 03:54 | 47.51407 | 66.42596 | 37954 ft | 435 kts | 255° |
| 2026-04-26 03:55 | 47.49954 | 66.33888 | 37950 ft | 435 kts | 255° |
| 2026-04-26 03:55 | 47.48498 | 66.25193 | 37963 ft | 435 kts | 255° |
| 2026-04-26 03:56 | 47.47035 | 66.16501 | 37981 ft | 435 kts | 255° |
| 2026-04-26 03:56 | 47.45575 | 66.07873 | 37978 ft | 435 kts | 255° |
| 2026-04-26 03:57 | 47.44098 | 65.99186 | 38026 ft | 435 kts | 255° |
| 2026-04-26 03:57 | 47.42625 | 65.90568 | 37996 ft | 430 kts | 255° |
| 2026-04-26 03:58 | 47.41158 | 65.82006 | 38010 ft | 429 kts | 255° |
| 2026-04-26 03:58 | 47.39740 | 65.73435 | 38015 ft | 430 kts | 256° |
| 2026-04-26 03:59 | 47.38333 | 65.64858 | 38019 ft | 430 kts | 256° |
| 2026-04-26 03:59 | 47.36925 | 65.56353 | 38016 ft | 428 kts | 255° |
| 2026-04-26 04:00 | 47.35503 | 65.47839 | 38070 ft | 426 kts | 255° |
| 2026-04-26 04:00 | 47.34077 | 65.39359 | 38040 ft | 426 kts | 255° |
| 2026-04-26 04:01 | 47.32647 | 65.30895 | 38043 ft | 426 kts | 255° |
| 2026-04-26 04:01 | 47.31210 | 65.22423 | 38050 ft | 426 kts | 255° |
| 2026-04-26 04:02 | 47.29767 | 65.13962 | 38049 ft | 425 kts | 255° |
| 2026-04-26 04:02 | 47.28329 | 65.05569 | 38061 ft | 425 kts | 255° |
| 2026-04-26 04:03 | 47.26879 | 64.97129 | 38063 ft | 425 kts | 255° |
| 2026-04-26 04:03 | 47.25418 | 64.88692 | 38073 ft | 425 kts | 255° |
| 2026-04-26 04:04 | 47.23945 | 64.80252 | 38080 ft | 425 kts | 255° |
| 2026-04-26 04:04 | 47.22463 | 64.71794 | 38079 ft | 428 kts | 255° |
| 2026-04-26 04:05 | 47.20970 | 64.63300 | 38076 ft | 429 kts | 254° |
| 2026-04-26 04:05 | 47.19481 | 64.54867 | 38081 ft | 429 kts | 254° |
| 2026-04-26 04:06 | 47.17985 | 64.46388 | 38082 ft | 429 kts | 254° |
| 2026-04-26 04:06 | 47.16477 | 64.37893 | 38087 ft | 430 kts | 254° |
| 2026-04-26 04:07 | 47.14959 | 64.29387 | 38084 ft | 431 kts | 254° |
| 2026-04-26 04:07 | 47.13433 | 64.20871 | 38086 ft | 431 kts | 254° |
| 2026-04-26 04:08 | 47.11902 | 64.12366 | 38083 ft | 431 kts | 254° |
| 2026-04-26 04:08 | 47.10365 | 64.03865 | 38095 ft | 431 kts | 254° |
| 2026-04-26 04:09 | 47.08822 | 63.95369 | 38094 ft | 431 kts | 254° |
| 2026-04-26 04:09 | 47.07271 | 63.86872 | 38100 ft | 431 kts | 254° |
| 2026-04-26 04:10 | 47.05716 | 63.78388 | 38099 ft | 431 kts | 254° |
| 2026-04-26 04:10 | 47.04152 | 63.69899 | 38094 ft | 431 kts | 254° |
| 2026-04-26 04:11 | 47.02849 | 63.62855 | 38096 ft | 431 kts | 254° |
| 2026-04-26 04:11 | 47.01271 | 63.54359 | 38106 ft | 432 kts | 254° |
| 2026-04-26 04:12 | 46.99429 | 63.44493 | 38110 ft | 432 kts | 254° |
| 2026-04-26 04:12 | 46.98095 | 63.37381 | 38108 ft | 432 kts | 254° |
| 2026-04-26 04:13 | 46.96496 | 63.28888 | 38111 ft | 432 kts | 254° |
| 2026-04-26 04:13 | 46.94889 | 63.20393 | 38112 ft | 434 kts | 254° |
| 2026-04-26 04:14 | 46.93282 | 63.11933 | 38115 ft | 435 kts | 254° |
| 2026-04-26 04:14 | 46.91656 | 63.03415 | 38120 ft | 435 kts | 254° |
| 2026-04-26 04:15 | 46.90022 | 62.94890 | 38127 ft | 435 kts | 253° |
| 2026-04-26 04:15 | 46.88381 | 62.86368 | 38123 ft | 437 kts | 254° |
| 2026-04-26 04:16 | 46.86718 | 62.77772 | 38124 ft | 440 kts | 254° |
| 2026-04-26 04:16 | 46.85043 | 62.69150 | 38147 ft | 441 kts | 254° |
| 2026-04-26 04:17 | 46.83364 | 62.60548 | 38131 ft | 441 kts | 253° |
| 2026-04-26 04:17 | 46.81680 | 62.51933 | 38139 ft | 441 kts | 253° |
| 2026-04-26 04:18 | 46.79998 | 62.43387 | 38140 ft | 440 kts | 254° |
| 2026-04-26 04:18 | 46.78299 | 62.34807 | 38142 ft | 440 kts | 254° |
| 2026-04-26 04:19 | 46.76593 | 62.26227 | 38149 ft | 440 kts | 253° |
| 2026-04-26 04:19 | 46.74884 | 62.17658 | 38145 ft | 440 kts | 253° |
| 2026-04-26 04:20 | 46.73167 | 62.09086 | 38145 ft | 440 kts | 253° |
| 2026-04-26 04:20 | 46.71450 | 62.00550 | 38155 ft | 438 kts | 253° |
| 2026-04-26 04:21 | 46.69728 | 61.92031 | 38170 ft | 438 kts | 253° |
| 2026-04-26 04:21 | 46.67998 | 61.83506 | 38169 ft | 438 kts | 253° |
| 2026-04-26 04:22 | 46.66264 | 61.74995 | 38151 ft | 438 kts | 253° |
| 2026-04-26 04:22 | 46.64522 | 61.66485 | 38163 ft | 439 kts | 253° |
| 2026-04-26 04:23 | 46.62774 | 61.57979 | 38161 ft | 439 kts | 253° |
| 2026-04-26 04:23 | 46.61025 | 61.49506 | 38170 ft | 439 kts | 253° |
| 2026-04-26 04:24 | 46.59263 | 61.41009 | 38171 ft | 439 kts | 253° |
| 2026-04-26 04:24 | 46.57492 | 61.32502 | 38170 ft | 439 kts | 253° |
| 2026-04-26 04:25 | 46.55718 | 61.24014 | 38166 ft | 439 kts | 253° |
| 2026-04-26 04:25 | 46.53935 | 61.15521 | 38170 ft | 439 kts | 253° |
| 2026-04-26 04:26 | 46.52148 | 61.07045 | 38189 ft | 438 kts | 253° |
| 2026-04-26 04:26 | 46.50369 | 60.98640 | 38189 ft | 438 kts | 253° |
| 2026-04-26 04:27 | 46.48571 | 60.90182 | 38177 ft | 439 kts | 253° |
| 2026-04-26 04:27 | 46.46764 | 60.81717 | 38196 ft | 439 kts | 253° |
| 2026-04-26 04:28 | 46.44952 | 60.73257 | 38194 ft | 439 kts | 253° |
| 2026-04-26 04:28 | 46.43133 | 60.64808 | 38204 ft | 439 kts | 253° |
| 2026-04-26 04:29 | 46.41308 | 60.56362 | 38189 ft | 440 kts | 253° |
| 2026-04-26 04:29 | 46.39473 | 60.47900 | 38199 ft | 440 kts | 253° |
| 2026-04-26 04:30 | 46.37627 | 60.39425 | 38193 ft | 440 kts | 253° |
| 2026-04-26 04:30 | 46.35791 | 60.31035 | 38200 ft | 440 kts | 253° |
| 2026-04-26 04:31 | 46.33931 | 60.22564 | 38202 ft | 440 kts | 252° |
| 2026-04-26 04:31 | 46.32071 | 60.14125 | 38204 ft | 440 kts | 252° |
| 2026-04-26 04:32 | 46.30204 | 60.05693 | 38200 ft | 440 kts | 252° |
| 2026-04-26 04:32 | 46.28329 | 59.97257 | 38205 ft | 440 kts | 252° |
| 2026-04-26 04:33 | 46.26448 | 59.88829 | 38206 ft | 440 kts | 252° |
| 2026-04-26 04:33 | 46.24572 | 59.80456 | 38215 ft | 440 kts | 252° |
| 2026-04-26 04:34 | 46.22682 | 59.72052 | 38211 ft | 440 kts | 252° |
| 2026-04-26 04:34 | 46.20783 | 59.63652 | 38206 ft | 440 kts | 252° |
| 2026-04-26 04:35 | 46.18863 | 59.55261 | 38218 ft | 440 kts | 252° |
| 2026-04-26 04:35 | 46.16934 | 59.46860 | 38219 ft | 441 kts | 252° |
| 2026-04-26 04:36 | 46.15002 | 59.38464 | 38218 ft | 441 kts | 252° |
| 2026-04-26 04:36 | 46.13067 | 59.30078 | 38219 ft | 441 kts | 252° |
| 2026-04-26 04:37 | 46.11121 | 59.21680 | 38227 ft | 442 kts | 252° |
| 2026-04-26 04:37 | 46.09180 | 59.13338 | 38238 ft | 442 kts | 252° |
| 2026-04-26 04:38 | 46.07216 | 59.04928 | 38226 ft | 442 kts | 252° |
| 2026-04-26 04:38 | 46.05248 | 58.96533 | 38234 ft | 443 kts | 252° |
| 2026-04-26 04:39 | 46.03274 | 58.88144 | 38231 ft | 443 kts | 252° |
| 2026-04-26 04:39 | 46.01293 | 58.79759 | 38225 ft | 443 kts | 252° |
| 2026-04-26 04:40 | 45.99304 | 58.71372 | 38242 ft | 443 kts | 252° |
| 2026-04-26 04:40 | 45.97307 | 58.62984 | 38244 ft | 443 kts | 252° |
| 2026-04-26 04:41 | 45.95318 | 58.54657 | 38245 ft | 443 kts | 252° |
| 2026-04-26 04:41 | 45.93311 | 58.46288 | 38247 ft | 443 kts | 252° |
| 2026-04-26 04:42 | 45.91297 | 58.37925 | 38246 ft | 443 kts | 252° |
| 2026-04-26 04:42 | 45.89277 | 58.29564 | 38250 ft | 443 kts | 252° |
| 2026-04-26 04:43 | 45.87249 | 58.21206 | 38252 ft | 443 kts | 252° |
| 2026-04-26 04:43 | 45.85215 | 58.12849 | 38253 ft | 443 kts | 252° |
| 2026-04-26 04:44 | 45.83189 | 58.04559 | 38248 ft | 443 kts | 251° |
| 2026-04-26 04:44 | 45.81145 | 57.96223 | 38252 ft | 443 kts | 251° |
| 2026-04-26 04:45 | 45.79092 | 57.87885 | 38259 ft | 443 kts | 251° |
| 2026-04-26 04:45 | 45.77032 | 57.79546 | 38258 ft | 443 kts | 251° |
| 2026-04-26 04:46 | 45.74968 | 57.71226 | 38260 ft | 443 kts | 251° |
| 2026-04-26 04:46 | 45.72898 | 57.62894 | 38260 ft | 444 kts | 251° |
| 2026-04-26 04:47 | 45.70822 | 57.54581 | 38266 ft | 444 kts | 251° |
| 2026-04-26 04:47 | 45.68745 | 57.46314 | 38262 ft | 444 kts | 251° |
| 2026-04-26 04:48 | 45.65601 | 57.33838 | 38268 ft | 444 kts | 251° |
| 2026-04-26 04:48 | 45.63510 | 57.25576 | 38269 ft | 444 kts | 251° |
| 2026-04-26 04:49 | 45.61404 | 57.17280 | 38265 ft | 444 kts | 251° |
| 2026-04-26 04:49 | 45.59291 | 57.08991 | 38270 ft | 444 kts | 251° |
| 2026-04-26 04:50 | 45.57174 | 57.00712 | 38270 ft | 444 kts | 251° |
| 2026-04-26 04:50 | 45.55047 | 56.92427 | 38274 ft | 444 kts | 251° |
| 2026-04-26 04:51 | 45.52916 | 56.84159 | 38271 ft | 444 kts | 251° |
| 2026-04-26 04:51 | 45.50779 | 56.75892 | 38270 ft | 444 kts | 251° |
| 2026-04-26 04:52 | 45.48647 | 56.67672 | 38276 ft | 444 kts | 251° |
| 2026-04-26 04:52 | 45.46498 | 56.59418 | 38278 ft | 444 kts | 251° |
| 2026-04-26 04:53 | 45.44343 | 56.51172 | 38272 ft | 444 kts | 251° |
| 2026-04-26 04:53 | 45.42181 | 56.42926 | 38272 ft | 444 kts | 251° |
| 2026-04-26 04:54 | 45.40013 | 56.34685 | 38281 ft | 444 kts | 251° |
| 2026-04-26 04:54 | 45.37838 | 56.26451 | 38277 ft | 444 kts | 251° |
| 2026-04-26 04:55 | 45.35660 | 56.18228 | 38279 ft | 444 kts | 250° |
| 2026-04-26 04:55 | 45.33489 | 56.10064 | 38278 ft | 444 kts | 250° |
| 2026-04-26 04:56 | 45.31299 | 56.01857 | 38281 ft | 444 kts | 250° |
| 2026-04-26 04:56 | 45.29099 | 55.93640 | 38281 ft | 444 kts | 250° |
| 2026-04-26 04:57 | 45.26899 | 55.85449 | 38288 ft | 445 kts | 250° |
| 2026-04-26 04:57 | 45.25060 | 55.78625 | 38283 ft | 445 kts | 250° |
| 2026-04-26 04:58 | 45.22841 | 55.70419 | 38285 ft | 445 kts | 250° |
| 2026-04-26 04:58 | 45.20614 | 55.62210 | 38282 ft | 445 kts | 250° |
| 2026-04-26 04:59 | 45.18388 | 55.54031 | 38288 ft | 444 kts | 250° |
| 2026-04-26 04:59 | 45.16155 | 55.45858 | 38288 ft | 444 kts | 250° |
| 2026-04-26 05:00 | 45.13917 | 55.37690 | 38293 ft | 444 kts | 250° |
| 2026-04-26 05:00 | 45.11675 | 55.29535 | 38289 ft | 444 kts | 250° |
| 2026-04-26 05:01 | 45.09270 | 55.21525 | 38291 ft | 446 kts | 244° |
| 2026-04-26 05:01 | 45.05607 | 55.14428 | 38292 ft | 452 kts | 229° |
| 2026-04-26 05:02 | 45.01055 | 55.08260 | 38293 ft | 454 kts | 226° |
| 2026-04-26 05:02 | 44.96374 | 55.02272 | 38293 ft | 454 kts | 226° |
| 2026-04-26 05:03 | 44.91700 | 54.96303 | 38294 ft | 453 kts | 226° |
| 2026-04-26 05:03 | 44.87048 | 54.90324 | 38296 ft | 452 kts | 226° |
| 2026-04-26 05:04 | 44.82399 | 54.84339 | 38302 ft | 452 kts | 226° |
| 2026-04-26 05:04 | 44.77780 | 54.78403 | 38281 ft | 452 kts | 226° |
| 2026-04-26 05:05 | 44.73129 | 54.72443 | 38303 ft | 452 kts | 226° |
| 2026-04-26 05:05 | 44.68474 | 54.66487 | 38305 ft | 452 kts | 226° |
| 2026-04-26 05:06 | 44.64389 | 54.59878 | 38304 ft | 446 kts | 237° |
| 2026-04-26 05:06 | 44.60785 | 54.52793 | 38307 ft | 445 kts | 238° |
| 2026-04-26 05:07 | 44.57262 | 54.45664 | 38303 ft | 444 kts | 238° |
| 2026-04-26 05:07 | 44.53735 | 54.38550 | 38304 ft | 444 kts | 238° |
| 2026-04-26 05:08 | 44.50185 | 54.31444 | 38301 ft | 444 kts | 238° |
| 2026-04-26 05:08 | 44.46652 | 54.24408 | 38296 ft | 443 kts | 238° |
| 2026-04-26 05:09 | 44.43102 | 54.17356 | 38308 ft | 442 kts | 238° |
| 2026-04-26 05:09 | 44.39554 | 54.10323 | 38311 ft | 442 kts | 238° |
| 2026-04-26 05:10 | 44.35998 | 54.03290 | 38307 ft | 442 kts | 238° |
| 2026-04-26 05:10 | 44.32445 | 53.96278 | 38312 ft | 442 kts | 238° |
| 2026-04-26 05:11 | 44.28892 | 53.89286 | 38312 ft | 442 kts | 238° |
| 2026-04-26 05:11 | 44.25350 | 53.82331 | 38311 ft | 442 kts | 237° |
| 2026-04-26 05:12 | 44.21787 | 53.75352 | 38312 ft | 442 kts | 237° |
| 2026-04-26 05:12 | 44.18213 | 53.68368 | 38315 ft | 442 kts | 237° |
| 2026-04-26 05:13 | 44.14634 | 53.61392 | 38312 ft | 442 kts | 237° |
| 2026-04-26 05:13 | 44.11056 | 53.54432 | 38315 ft | 442 kts | 237° |
| 2026-04-26 05:14 | 44.07473 | 53.47482 | 38317 ft | 442 kts | 237° |
| 2026-04-26 05:14 | 44.03888 | 53.40543 | 38317 ft | 442 kts | 237° |
| 2026-04-26 05:15 | 44.00322 | 53.33656 | 38317 ft | 442 kts | 237° |
| 2026-04-26 05:15 | 43.96726 | 53.26729 | 38309 ft | 442 kts | 237° |
| 2026-04-26 05:16 | 43.93130 | 53.19819 | 38317 ft | 441 kts | 237° |
| 2026-04-26 05:16 | 43.89532 | 53.12921 | 38317 ft | 441 kts | 237° |
| 2026-04-26 05:17 | 43.85937 | 53.06045 | 38317 ft | 441 kts | 237° |
| 2026-04-26 05:17 | 43.82332 | 52.99172 | 38315 ft | 441 kts | 237° |
| 2026-04-26 05:18 | 43.78726 | 52.92313 | 38314 ft | 440 kts | 237° |
| 2026-04-26 05:18 | 43.75122 | 52.85472 | 38316 ft | 440 kts | 237° |
| 2026-04-26 05:19 | 43.71532 | 52.78674 | 38314 ft | 440 kts | 237° |
| 2026-04-26 05:19 | 43.67920 | 52.71848 | 38314 ft | 440 kts | 237° |
| 2026-04-26 05:20 | 43.64300 | 52.65021 | 38314 ft | 440 kts | 237° |
| 2026-04-26 05:20 | 43.60672 | 52.58220 | 38315 ft | 440 kts | 237° |
| 2026-04-26 05:21 | 43.57035 | 52.51433 | 38315 ft | 440 kts | 237° |
| 2026-04-26 05:21 | 43.53392 | 52.44646 | 38314 ft | 439 kts | 237° |
| 2026-04-26 05:22 | 43.49754 | 52.37879 | 38316 ft | 439 kts | 237° |
| 2026-04-26 05:22 | 43.46111 | 52.31117 | 38321 ft | 439 kts | 237° |
| 2026-04-26 05:23 | 43.42467 | 52.24367 | 38310 ft | 439 kts | 237° |
| 2026-04-26 05:23 | 43.38846 | 52.17677 | 38318 ft | 438 kts | 237° |
| 2026-04-26 05:24 | 43.35202 | 52.10959 | 38314 ft | 438 kts | 236° |
| 2026-04-26 05:24 | 43.31548 | 52.04238 | 38310 ft | 438 kts | 236° |
| 2026-04-26 05:25 | 43.27897 | 51.97538 | 38310 ft | 438 kts | 236° |
| 2026-04-26 05:25 | 43.24234 | 51.90831 | 38326 ft | 438 kts | 236° |
| 2026-04-26 05:26 | 43.20596 | 51.84186 | 38303 ft | 438 kts | 236° |
| 2026-04-26 05:26 | 43.16930 | 51.77503 | 38319 ft | 438 kts | 236° |
| 2026-04-26 05:27 | 43.13258 | 51.70824 | 38308 ft | 438 kts | 236° |
| 2026-04-26 05:27 | 43.09592 | 51.64173 | 38293 ft | 438 kts | 236° |
| 2026-04-26 05:28 | 43.05916 | 51.57518 | 38287 ft | 438 kts | 236° |
| 2026-04-26 05:28 | 43.02232 | 51.50864 | 38281 ft | 438 kts | 236° |
| 2026-04-26 05:29 | 42.98552 | 51.44230 | 38298 ft | 438 kts | 236° |
| 2026-04-26 05:29 | 42.94875 | 51.37617 | 38298 ft | 437 kts | 236° |
| 2026-04-26 05:30 | 42.91191 | 51.31007 | 38290 ft | 437 kts | 236° |
| 2026-04-26 05:30 | 42.87502 | 51.24404 | 38290 ft | 437 kts | 236° |
| 2026-04-26 05:31 | 42.83815 | 51.17817 | 38286 ft | 437 kts | 236° |
| 2026-04-26 05:31 | 42.80150 | 51.11285 | 38284 ft | 436 kts | 236° |
| 2026-04-26 05:32 | 42.76462 | 51.04725 | 38287 ft | 436 kts | 236° |
| 2026-04-26 05:32 | 42.72766 | 50.98166 | 38283 ft | 436 kts | 236° |
| 2026-04-26 05:33 | 42.69066 | 50.91614 | 38278 ft | 437 kts | 235° |
| 2026-04-26 05:33 | 42.65362 | 50.85071 | 38279 ft | 437 kts | 235° |
| 2026-04-26 05:34 | 42.61651 | 50.78529 | 38274 ft | 436 kts | 235° |
| 2026-04-26 05:34 | 42.57943 | 50.72006 | 38282 ft | 436 kts | 235° |
| 2026-04-26 05:35 | 42.54232 | 50.65493 | 38270 ft | 436 kts | 235° |
| 2026-04-26 05:35 | 42.50542 | 50.59030 | 38270 ft | 436 kts | 235° |
| 2026-04-26 05:36 | 42.46815 | 50.52518 | 38267 ft | 437 kts | 235° |
| 2026-04-26 05:36 | 42.43085 | 50.46012 | 38268 ft | 437 kts | 235° |
| 2026-04-26 05:37 | 42.39503 | 50.39384 | 38267 ft | 436 kts | 237° |
| 2026-04-26 05:37 | 42.36021 | 50.32658 | 38257 ft | 436 kts | 237° |
| 2026-04-26 05:38 | 42.32520 | 50.25965 | 38263 ft | 437 kts | 237° |
| 2026-04-26 05:38 | 42.28981 | 50.19284 | 38262 ft | 437 kts | 237° |
| 2026-04-26 05:39 | 42.25432 | 50.12624 | 38259 ft | 437 kts | 237° |
| 2026-04-26 05:39 | 42.21902 | 50.06014 | 38252 ft | 437 kts | 237° |
| 2026-04-26 05:40 | 42.18345 | 49.99364 | 38251 ft | 437 kts | 237° |
| 2026-04-26 05:40 | 42.14786 | 49.92725 | 38251 ft | 437 kts | 237° |
| 2026-04-26 05:41 | 42.11220 | 49.86087 | 38249 ft | 437 kts | 236° |
| 2026-04-26 05:41 | 42.07649 | 49.79454 | 38243 ft | 437 kts | 236° |
| 2026-04-26 05:42 | 42.04075 | 49.72830 | 38243 ft | 437 kts | 236° |
| 2026-04-26 05:42 | 42.00495 | 49.66209 | 38241 ft | 438 kts | 236° |
| 2026-04-26 05:43 | 41.97518 | 49.60715 | 38223 ft | 437 kts | 236° |
| 2026-04-26 05:43 | 41.93930 | 49.54108 | 38243 ft | 438 kts | 236° |
| 2026-04-26 05:44 | 41.90340 | 49.47510 | 38223 ft | 437 kts | 236° |
| 2026-04-26 05:44 | 41.86741 | 49.40909 | 38219 ft | 438 kts | 236° |
| 2026-04-26 05:45 | 41.83143 | 49.34325 | 38214 ft | 439 kts | 236° |
| 2026-04-26 05:45 | 41.79544 | 49.27694 | 38229 ft | 440 kts | 238° |
| 2026-04-26 05:46 | 41.76151 | 49.20873 | 38225 ft | 439 kts | 239° |
| 2026-04-26 05:46 | 41.72813 | 49.14015 | 38214 ft | 439 kts | 239° |
| 2026-04-26 05:47 | 41.69445 | 49.07200 | 38212 ft | 439 kts | 239° |
| 2026-04-26 05:47 | 41.66047 | 49.00404 | 38211 ft | 439 kts | 238° |
| 2026-04-26 05:48 | 41.62656 | 48.93652 | 38207 ft | 440 kts | 238° |
| 2026-04-26 05:48 | 41.59243 | 48.86872 | 38207 ft | 440 kts | 238° |
| 2026-04-26 05:49 | 41.54110 | 48.76694 | 38203 ft | 440 kts | 238° |
| 2026-04-26 05:50 | 41.50650 | 48.69963 | 38195 ft | 440 kts | 237° |
| 2026-04-26 05:50 | 41.46966 | 48.63418 | 38208 ft | 439 kts | 235° |
| 2026-04-26 05:51 | 41.43293 | 48.57000 | 38197 ft | 437 kts | 236° |
| 2026-04-26 05:51 | 41.39659 | 48.50522 | 38176 ft | 436 kts | 237° |
| 2026-04-26 05:52 | 41.36104 | 48.43962 | 38173 ft | 436 kts | 237° |
| 2026-04-26 05:52 | 41.32579 | 48.37451 | 38163 ft | 430 kts | 237° |
| 2026-04-26 05:53 | 41.29075 | 48.31024 | 38164 ft | 429 kts | 236° |
| 2026-04-26 05:53 | 41.25579 | 48.24643 | 38160 ft | 428 kts | 236° |
| 2026-04-26 05:54 | 41.22064 | 48.18243 | 38161 ft | 430 kts | 236° |
| 2026-04-26 05:54 | 41.18516 | 48.11795 | 38178 ft | 432 kts | 236° |
| 2026-04-26 05:55 | 41.15117 | 48.05224 | 38176 ft | 431 kts | 243° |
| 2026-04-26 05:55 | 41.12911 | 47.97891 | 38194 ft | 429 kts | 257° |
| 2026-04-26 05:56 | 41.12382 | 47.90006 | 38185 ft | 435 kts | 272° |
| 2026-04-26 05:56 | 41.13339 | 47.82037 | 38203 ft | 439 kts | 279° |
| 2026-04-26 05:57 | 41.14613 | 47.74110 | 38197 ft | 439 kts | 280° |
| 2026-04-26 05:57 | 41.15893 | 47.66214 | 38199 ft | 442 kts | 279° |
| 2026-04-26 05:58 | 41.17151 | 47.58210 | 38224 ft | 443 kts | 279° |
| 2026-04-26 05:58 | 41.18386 | 47.50190 | 38229 ft | 444 kts | 279° |
| 2026-04-26 05:59 | 41.19614 | 47.42161 | 38231 ft | 444 kts | 279° |
| 2026-04-26 05:59 | 41.20840 | 47.34121 | 38294 ft | 444 kts | 279° |
| 2026-04-26 06:00 | 41.22062 | 47.26071 | 38274 ft | 445 kts | 279° |
| 2026-04-26 06:00 | 41.23282 | 47.17989 | 38293 ft | 447 kts | 279° |
| 2026-04-26 06:01 | 41.24497 | 47.09913 | 38316 ft | 445 kts | 279° |
| 2026-04-26 06:01 | 41.25694 | 47.01910 | 38323 ft | 444 kts | 279° |
| 2026-04-26 06:02 | 41.26893 | 46.93847 | 38317 ft | 444 kts | 279° |
| 2026-04-26 06:02 | 41.28087 | 46.85781 | 38350 ft | 445 kts | 279° |
| 2026-04-26 06:03 | 41.29277 | 46.77706 | 38351 ft | 445 kts | 279° |
| 2026-04-26 06:03 | 41.30455 | 46.69629 | 38336 ft | 444 kts | 279° |
| 2026-04-26 06:04 | 41.31581 | 46.61560 | 38340 ft | 443 kts | 278° |
| 2026-04-26 06:04 | 41.32696 | 46.53495 | 38345 ft | 443 kts | 278° |
| 2026-04-26 06:05 | 41.33805 | 46.45479 | 38346 ft | 443 kts | 278° |
| 2026-04-26 06:05 | 41.34927 | 46.37359 | 38344 ft | 443 kts | 278° |
| 2026-04-26 06:06 | 41.36035 | 46.29299 | 38337 ft | 443 kts | 278° |
| 2026-04-26 06:06 | 41.37133 | 46.21275 | 38350 ft | 443 kts | 278° |
| 2026-04-26 06:07 | 41.38232 | 46.13193 | 38339 ft | 443 kts | 278° |
| 2026-04-26 06:07 | 41.39322 | 46.05130 | 38330 ft | 442 kts | 278° |
| 2026-04-26 06:08 | 41.40408 | 45.97059 | 38328 ft | 442 kts | 278° |
| 2026-04-26 06:08 | 41.41488 | 45.88982 | 38328 ft | 442 kts | 278° |
| 2026-04-26 06:09 | 41.42562 | 45.80908 | 38321 ft | 442 kts | 278° |
| 2026-04-26 06:09 | 41.43622 | 45.72898 | 38319 ft | 442 kts | 278° |
| 2026-04-26 06:10 | 41.44685 | 45.64814 | 38314 ft | 442 kts | 278° |
| 2026-04-26 06:10 | 41.45741 | 45.56742 | 38308 ft | 442 kts | 278° |
| 2026-04-26 06:11 | 41.46792 | 45.48663 | 38301 ft | 442 kts | 278° |
| 2026-04-26 06:11 | 41.47836 | 45.40591 | 38303 ft | 442 kts | 278° |
| 2026-04-26 06:12 | 41.48827 | 45.32515 | 38295 ft | 441 kts | 276° |
| 2026-04-26 06:12 | 41.49477 | 45.24373 | 38294 ft | 441 kts | 274° |
| 2026-04-26 06:13 | 41.50054 | 45.16229 | 38292 ft | 441 kts | 274° |
| 2026-04-26 06:13 | 41.50675 | 45.08089 | 38292 ft | 441 kts | 275° |
| 2026-04-26 06:14 | 41.51324 | 44.99954 | 38288 ft | 441 kts | 275° |
| 2026-04-26 06:14 | 41.51971 | 44.91857 | 38291 ft | 441 kts | 275° |
| 2026-04-26 06:15 | 41.52614 | 44.83713 | 38292 ft | 442 kts | 275° |
| 2026-04-26 06:15 | 41.53252 | 44.75540 | 38291 ft | 442 kts | 275° |
| 2026-04-26 06:16 | 41.53883 | 44.67381 | 38290 ft | 442 kts | 275° |
| 2026-04-26 06:16 | 41.54509 | 44.59215 | 38289 ft | 442 kts | 275° |
| 2026-04-26 06:17 | 41.55128 | 44.51049 | 38276 ft | 442 kts | 275° |
| 2026-04-26 06:17 | 41.55742 | 44.42869 | 38268 ft | 442 kts | 275° |
| 2026-04-26 06:18 | 41.56350 | 44.34694 | 38254 ft | 442 kts | 274° |
| 2026-04-26 06:18 | 41.56938 | 44.26514 | 38255 ft | 442 kts | 273° |
| 2026-04-26 06:19 | 41.56658 | 44.18344 | 38227 ft | 441 kts | 263° |
| 2026-04-26 06:19 | 41.55824 | 44.10229 | 38223 ft | 441 kts | 262° |
| 2026-04-26 06:20 | 41.54904 | 44.02122 | 38221 ft | 442 kts | 261° |
| 2026-04-26 06:20 | 41.53983 | 43.94019 | 38196 ft | 441 kts | 262° |
| 2026-04-26 06:21 | 41.53074 | 43.85967 | 38183 ft | 441 kts | 261° |
| 2026-04-26 06:21 | 41.52159 | 43.77868 | 38182 ft | 441 kts | 262° |
| 2026-04-26 06:22 | 41.51239 | 43.69766 | 38153 ft | 441 kts | 261° |
| 2026-04-26 06:22 | 41.50311 | 43.61652 | 38157 ft | 441 kts | 261° |
| 2026-04-26 06:23 | 41.49378 | 43.53553 | 38139 ft | 441 kts | 261° |
| 2026-04-26 06:23 | 41.48442 | 43.45464 | 38129 ft | 442 kts | 261° |
| 2026-04-26 06:24 | 41.47496 | 43.37356 | 38128 ft | 442 kts | 261° |
| 2026-04-26 06:24 | 41.46550 | 43.29298 | 38133 ft | 443 kts | 261° |
| 2026-04-26 06:25 | 41.45593 | 43.21189 | 38133 ft | 442 kts | 261° |
| 2026-04-26 06:25 | 41.44632 | 43.13095 | 38128 ft | 442 kts | 261° |
| 2026-04-26 06:26 | 41.43663 | 43.04999 | 38151 ft | 442 kts | 261° |
| 2026-04-26 06:26 | 41.42691 | 42.96912 | 38141 ft | 442 kts | 261° |
| 2026-04-26 06:27 | 41.41714 | 42.88818 | 38149 ft | 442 kts | 261° |
| 2026-04-26 06:27 | 41.40734 | 42.80785 | 38140 ft | 442 kts | 261° |
| 2026-04-26 06:28 | 41.39743 | 42.72707 | 38139 ft | 442 kts | 261° |
| 2026-04-26 06:28 | 41.38747 | 42.64625 | 38137 ft | 442 kts | 260° |
| 2026-04-26 06:29 | 41.37917 | 42.57915 | 38137 ft | 442 kts | 260° |
| 2026-04-26 06:29 | 41.36911 | 42.49840 | 38117 ft | 442 kts | 260° |
| 2026-04-26 06:30 | 41.35900 | 42.41777 | 38116 ft | 442 kts | 260° |
| 2026-04-26 06:30 | 41.34882 | 42.33698 | 38088 ft | 441 kts | 260° |
| 2026-04-26 06:31 | 41.33858 | 42.25624 | 38095 ft | 442 kts | 260° |
| 2026-04-26 06:31 | 41.32836 | 42.17613 | 38082 ft | 442 kts | 260° |
| 2026-04-26 06:32 | 41.31803 | 42.09553 | 38071 ft | 442 kts | 260° |
| 2026-04-26 06:32 | 41.30764 | 42.01492 | 38081 ft | 442 kts | 260° |
| 2026-04-26 06:33 | 41.29719 | 41.93415 | 38055 ft | 443 kts | 259° |
| 2026-04-26 06:33 | 41.28658 | 41.85344 | 38072 ft | 443 kts | 259° |
| 2026-04-26 06:34 | 41.27582 | 41.77282 | 38052 ft | 443 kts | 259° |
| 2026-04-26 06:34 | 41.26506 | 41.69209 | 38040 ft | 443 kts | 259° |
| 2026-04-26 06:35 | 41.25430 | 41.61183 | 38038 ft | 443 kts | 259° |
| 2026-04-26 06:35 | 41.24345 | 41.53118 | 38008 ft | 442 kts | 259° |
| 2026-04-26 06:36 | 41.23253 | 41.45028 | 38036 ft | 445 kts | 259° |
| 2026-04-26 06:36 | 41.22155 | 41.36945 | 38020 ft | 444 kts | 259° |
| 2026-04-26 06:37 | 41.21044 | 41.28861 | 38023 ft | 445 kts | 258° |
| 2026-04-26 06:37 | 41.19941 | 41.20842 | 38029 ft | 445 kts | 259° |
| 2026-04-26 06:38 | 41.18823 | 41.12749 | 38014 ft | 445 kts | 258° |
| 2026-04-26 06:38 | 41.17698 | 41.04656 | 38021 ft | 446 kts | 258° |
| 2026-04-26 06:39 | 41.16567 | 40.96569 | 38009 ft | 446 kts | 258° |
| 2026-04-26 06:39 | 41.15431 | 40.88486 | 38013 ft | 446 kts | 258° |
| 2026-04-26 06:40 | 41.14287 | 40.80395 | 38028 ft | 446 kts | 258° |
| 2026-04-26 06:40 | 41.13140 | 40.72314 | 38019 ft | 446 kts | 258° |
| 2026-04-26 06:41 | 41.11984 | 40.64216 | 38013 ft | 447 kts | 258° |
| 2026-04-26 06:41 | 41.10821 | 40.56116 | 38011 ft | 447 kts | 258° |
| 2026-04-26 06:42 | 41.09660 | 40.48071 | 38004 ft | 447 kts | 258° |
| 2026-04-26 06:42 | 41.08486 | 40.39975 | 37979 ft | 447 kts | 258° |
| 2026-04-26 06:43 | 41.07305 | 40.31879 | 37986 ft | 447 kts | 258° |
| 2026-04-26 06:43 | 41.06119 | 40.23787 | 37980 ft | 447 kts | 258° |
| 2026-04-26 06:44 | 41.04926 | 40.15687 | 37983 ft | 447 kts | 258° |
| 2026-04-26 06:44 | 41.03729 | 40.07602 | 37995 ft | 447 kts | 258° |
| 2026-04-26 06:45 | 41.02530 | 39.99550 | 37990 ft | 448 kts | 258° |
| 2026-04-26 06:45 | 41.01316 | 39.91433 | 37992 ft | 449 kts | 257° |
| 2026-04-26 06:46 | 41.00132 | 39.83306 | 37987 ft | 450 kts | 260° |
| 2026-04-26 06:46 | 41.00007 | 39.75014 | 37991 ft | 453 kts | 273° |
| 2026-04-26 06:47 | 41.00706 | 39.66723 | 37989 ft | 454 kts | 275° |
| 2026-04-26 06:47 | 41.01529 | 39.58422 | 37995 ft | 454 kts | 275° |
| 2026-04-26 06:48 | 41.02340 | 39.50169 | 37985 ft | 455 kts | 275° |
| 2026-04-26 06:48 | 41.03131 | 39.41850 | 37987 ft | 456 kts | 275° |
| 2026-04-26 06:49 | 41.03910 | 39.33512 | 37990 ft | 456 kts | 275° |
| 2026-04-26 06:49 | 41.04680 | 39.25174 | 37995 ft | 456 kts | 275° |
| 2026-04-26 06:50 | 41.05446 | 39.16818 | 37986 ft | 456 kts | 275° |
| 2026-04-26 06:50 | 41.06213 | 39.08472 | 37986 ft | 456 kts | 275° |
| 2026-04-26 06:51 | 41.06986 | 39.00125 | 37983 ft | 456 kts | 275° |
| 2026-04-26 06:51 | 41.08126 | 38.87671 | 38001 ft | 456 kts | 275° |
| 2026-04-26 06:52 | 41.08881 | 38.79325 | 37988 ft | 457 kts | 275° |
| 2026-04-26 06:52 | 41.09634 | 38.70930 | 37990 ft | 458 kts | 275° |
| 2026-04-26 06:53 | 41.10379 | 38.62536 | 37994 ft | 458 kts | 274° |
| 2026-04-26 06:53 | 41.11096 | 38.54140 | 37986 ft | 458 kts | 274° |
| 2026-04-26 06:54 | 41.11790 | 38.45740 | 37993 ft | 458 kts | 274° |
| 2026-04-26 06:54 | 41.12477 | 38.37379 | 37987 ft | 459 kts | 274° |
| 2026-04-26 06:55 | 41.13169 | 38.28958 | 37990 ft | 459 kts | 274° |
| 2026-04-26 06:55 | 41.13865 | 38.20533 | 37995 ft | 459 kts | 274° |
| 2026-04-26 06:56 | 41.14552 | 38.12101 | 38000 ft | 459 kts | 274° |
| 2026-04-26 06:56 | 41.15232 | 38.03658 | 37995 ft | 461 kts | 274° |
| 2026-04-26 06:57 | 41.15911 | 37.95183 | 37992 ft | 461 kts | 274° |
| 2026-04-26 06:57 | 41.16579 | 37.86775 | 37986 ft | 461 kts | 274° |
| 2026-04-26 06:58 | 41.17291 | 37.78299 | 37988 ft | 462 kts | 275° |
| 2026-04-26 06:58 | 41.18020 | 37.69829 | 37985 ft | 461 kts | 275° |
| 2026-04-26 06:59 | 41.18736 | 37.61378 | 37988 ft | 461 kts | 275° |
| 2026-04-26 06:59 | 41.19270 | 37.52897 | 37989 ft | 460 kts | 272° |
| 2026-04-26 07:00 | 41.19807 | 37.44417 | 37991 ft | 461 kts | 274° |
| 2026-04-26 07:00 | 41.20441 | 37.35927 | 37996 ft | 462 kts | 274° |
| 2026-04-26 07:01 | 41.21081 | 37.27442 | 37988 ft | 461 kts | 274° |
| 2026-04-26 07:01 | 41.21709 | 37.19031 | 37989 ft | 461 kts | 274° |
| 2026-04-26 07:02 | 41.22370 | 37.10560 | 37988 ft | 461 kts | 275° |
| 2026-04-26 07:02 | 41.23031 | 37.02077 | 37986 ft | 461 kts | 274° |
| 2026-04-26 07:03 | 41.23681 | 36.93598 | 37980 ft | 461 kts | 274° |
| 2026-04-26 07:03 | 41.24322 | 36.85120 | 37975 ft | 461 kts | 274° |
| 2026-04-26 07:04 | 41.24957 | 36.76641 | 37969 ft | 461 kts | 274° |
| 2026-04-26 07:04 | 41.25583 | 36.68192 | 37966 ft | 463 kts | 274° |
| 2026-04-26 07:05 | 41.26207 | 36.59679 | 37969 ft | 463 kts | 274° |
| 2026-04-26 07:05 | 41.27523 | 36.51297 | 37986 ft | 465 kts | 285° |
| 2026-04-26 07:06 | 41.29522 | 36.43107 | 37984 ft | 466 kts | 287° |
| 2026-04-26 07:06 | 41.31620 | 36.34940 | 37985 ft | 466 kts | 287° |
| 2026-04-26 07:07 | 41.33715 | 36.26774 | 37987 ft | 466 kts | 287° |
| 2026-04-26 07:07 | 41.35790 | 36.18596 | 37985 ft | 467 kts | 287° |
| 2026-04-26 07:08 | 41.37860 | 36.10383 | 37989 ft | 468 kts | 287° |
| 2026-04-26 07:08 | 41.39910 | 36.02214 | 37990 ft | 468 kts | 287° |
| 2026-04-26 07:09 | 41.41968 | 35.93985 | 37994 ft | 468 kts | 287° |
| 2026-04-26 07:09 | 41.44021 | 35.85753 | 37992 ft | 468 kts | 287° |
| 2026-04-26 07:11 | 41.49135 | 35.65121 | 37993 ft | 468 kts | 287° |
| 2026-04-26 07:11 | 41.51169 | 35.56862 | 37997 ft | 469 kts | 287° |
| 2026-04-26 07:12 | 41.53197 | 35.48601 | 37991 ft | 468 kts | 287° |
| 2026-04-26 07:12 | 41.55218 | 35.40338 | 37994 ft | 468 kts | 287° |
| 2026-04-26 07:13 | 41.57235 | 35.32063 | 37996 ft | 468 kts | 287° |
| 2026-04-26 07:13 | 41.59247 | 35.23777 | 37999 ft | 469 kts | 287° |
| 2026-04-26 07:14 | 41.61253 | 35.15490 | 38002 ft | 469 kts | 287° |
| 2026-04-26 07:14 | 41.63246 | 35.07224 | 38004 ft | 469 kts | 287° |
| 2026-04-26 07:15 | 41.65240 | 34.98924 | 38004 ft | 469 kts | 287° |
| 2026-04-26 07:15 | 41.67231 | 34.90608 | 38005 ft | 469 kts | 287° |
| 2026-04-26 07:16 | 41.69215 | 34.82286 | 38004 ft | 469 kts | 287° |
| 2026-04-26 07:16 | 41.71194 | 34.73959 | 38002 ft | 469 kts | 287° |
| 2026-04-26 07:17 | 41.72835 | 34.67032 | 38003 ft | 470 kts | 287° |
| 2026-04-26 07:17 | 41.74804 | 34.58693 | 37994 ft | 469 kts | 287° |
| 2026-04-26 07:18 | 41.76772 | 34.50350 | 37998 ft | 469 kts | 287° |
| 2026-04-26 07:18 | 41.78721 | 34.42013 | 38001 ft | 469 kts | 287° |
| 2026-04-26 07:19 | 41.80669 | 34.33662 | 38000 ft | 469 kts | 287° |
| 2026-04-26 07:19 | 41.82609 | 34.25316 | 37995 ft | 468 kts | 287° |
| 2026-04-26 07:20 | 41.84529 | 34.17028 | 37993 ft | 468 kts | 287° |
| 2026-04-26 07:20 | 41.86460 | 34.08667 | 37997 ft | 468 kts | 287° |
| 2026-04-26 07:21 | 41.88379 | 34.00320 | 37997 ft | 468 kts | 287° |
| 2026-04-26 07:21 | 41.90292 | 33.91972 | 37994 ft | 468 kts | 287° |
| 2026-04-26 07:22 | 41.92192 | 33.83649 | 37992 ft | 468 kts | 287° |
| 2026-04-26 07:22 | 41.94094 | 33.75284 | 37987 ft | 467 kts | 287° |
| 2026-04-26 07:23 | 41.95967 | 33.66916 | 37995 ft | 467 kts | 285° |
| 2026-04-26 07:23 | 41.97599 | 33.58456 | 37989 ft | 467 kts | 284° |
| 2026-04-26 07:24 | 41.99163 | 33.49978 | 37992 ft | 467 kts | 284° |
| 2026-04-26 07:24 | 42.00755 | 33.41509 | 37990 ft | 467 kts | 284° |
| 2026-04-26 07:25 | 42.02367 | 33.33034 | 37987 ft | 468 kts | 284° |
| 2026-04-26 07:25 | 42.03971 | 33.24601 | 37990 ft | 468 kts | 284° |
| 2026-04-26 07:26 | 42.05576 | 33.16123 | 37996 ft | 468 kts | 284° |
| 2026-04-26 07:26 | 42.07174 | 33.07633 | 37996 ft | 468 kts | 284° |
| 2026-04-26 07:27 | 42.08853 | 32.99181 | 37994 ft | 467 kts | 285° |
| 2026-04-26 07:27 | 42.10610 | 32.90742 | 37999 ft | 467 kts | 285° |
| 2026-04-26 07:28 | 42.12349 | 32.82310 | 37998 ft | 467 kts | 285° |
| 2026-04-26 07:28 | 42.14063 | 32.73879 | 37999 ft | 466 kts | 285° |
| 2026-04-26 07:29 | 42.15764 | 32.65454 | 37999 ft | 466 kts | 285° |
| 2026-04-26 07:29 | 42.17461 | 32.57024 | 37998 ft | 466 kts | 285° |
| 2026-04-26 07:30 | 42.19147 | 32.48590 | 37998 ft | 466 kts | 285° |
| 2026-04-26 07:30 | 42.20821 | 32.40153 | 38004 ft | 466 kts | 285° |
| 2026-04-26 07:31 | 42.22493 | 32.31705 | 38002 ft | 466 kts | 285° |
| 2026-04-26 07:31 | 42.24161 | 32.23253 | 38001 ft | 466 kts | 285° |
| 2026-04-26 07:32 | 42.25806 | 32.14854 | 38000 ft | 465 kts | 285° |
| 2026-04-26 07:32 | 42.27455 | 32.06425 | 38001 ft | 464 kts | 285° |
| 2026-04-26 07:33 | 42.29100 | 31.98007 | 38000 ft | 464 kts | 285° |
| 2026-04-26 07:33 | 42.30737 | 31.89586 | 38001 ft | 464 kts | 285° |
| 2026-04-26 07:34 | 42.32372 | 31.81144 | 38003 ft | 463 kts | 285° |
| 2026-04-26 07:34 | 42.33996 | 31.72721 | 37997 ft | 463 kts | 285° |
| 2026-04-26 07:35 | 42.35614 | 31.64291 | 38004 ft | 464 kts | 285° |
| 2026-04-26 07:35 | 42.37232 | 31.55830 | 38004 ft | 464 kts | 285° |
| 2026-04-26 07:36 | 42.38830 | 31.47431 | 38006 ft | 464 kts | 285° |
| 2026-04-26 07:36 | 42.40432 | 31.38979 | 38001 ft | 464 kts | 285° |
| 2026-04-26 07:37 | 42.42029 | 31.30514 | 37999 ft | 464 kts | 285° |
| 2026-04-26 07:37 | 42.43618 | 31.22055 | 38001 ft | 464 kts | 285° |
| 2026-04-26 07:38 | 42.45201 | 31.13590 | 38003 ft | 463 kts | 285° |
| 2026-04-26 07:38 | 42.46781 | 31.05135 | 38001 ft | 463 kts | 285° |
| 2026-04-26 07:39 | 42.48345 | 30.96674 | 38000 ft | 463 kts | 285° |
| 2026-04-26 07:39 | 42.49889 | 30.88267 | 38001 ft | 463 kts | 285° |
| 2026-04-26 07:40 | 42.51440 | 30.79802 | 37996 ft | 462 kts | 284° |
| 2026-04-26 07:40 | 42.52982 | 30.71349 | 37996 ft | 462 kts | 284° |
| 2026-04-26 07:41 | 42.54523 | 30.62875 | 37993 ft | 462 kts | 284° |
| 2026-04-26 07:41 | 42.56053 | 30.54418 | 37993 ft | 462 kts | 284° |
| 2026-04-26 07:42 | 42.57579 | 30.45944 | 37992 ft | 461 kts | 284° |
| 2026-04-26 07:42 | 42.59097 | 30.37474 | 37993 ft | 461 kts | 284° |
| 2026-04-26 07:43 | 42.60893 | 30.29208 | 37994 ft | 460 kts | 293° |
| 2026-04-26 07:43 | 42.64185 | 30.21789 | 37997 ft | 459 kts | 309° |
| 2026-04-26 07:44 | 42.68349 | 30.15194 | 37993 ft | 460 kts | 311° |
| 2026-04-26 07:44 | 42.72622 | 30.08736 | 37990 ft | 459 kts | 311° |
| 2026-04-26 07:45 | 42.76902 | 30.02251 | 37986 ft | 459 kts | 311° |
| 2026-04-26 07:45 | 42.81126 | 29.95788 | 37987 ft | 459 kts | 311° |
| 2026-04-26 07:46 | 42.85357 | 29.89278 | 37988 ft | 458 kts | 311° |
| 2026-04-26 07:46 | 42.89571 | 29.82776 | 37985 ft | 458 kts | 311° |
| 2026-04-26 07:47 | 42.93787 | 29.76261 | 37982 ft | 457 kts | 310° |
| 2026-04-26 07:47 | 42.97988 | 29.69754 | 37982 ft | 456 kts | 310° |
| 2026-04-26 07:48 | 43.02172 | 29.63258 | 37980 ft | 455 kts | 310° |
| 2026-04-26 07:48 | 43.06352 | 29.56753 | 37979 ft | 455 kts | 310° |
| 2026-04-26 07:49 | 43.10504 | 29.50280 | 37977 ft | 455 kts | 310° |
| 2026-04-26 07:49 | 43.14682 | 29.43750 | 37977 ft | 455 kts | 310° |
| 2026-04-26 07:50 | 43.20940 | 29.33942 | 37971 ft | 455 kts | 310° |
| 2026-04-26 07:50 | 43.25104 | 29.27397 | 37975 ft | 455 kts | 310° |
| 2026-04-26 07:51 | 43.29260 | 29.20851 | 37970 ft | 454 kts | 310° |
| 2026-04-26 07:51 | 43.33382 | 29.14342 | 37968 ft | 453 kts | 310° |
| 2026-04-26 07:52 | 43.37520 | 29.07794 | 37967 ft | 453 kts | 310° |
| 2026-04-26 07:52 | 43.41654 | 29.01238 | 37966 ft | 453 kts | 310° |
| 2026-04-26 07:53 | 43.45773 | 28.94690 | 37960 ft | 451 kts | 309° |
| 2026-04-26 07:53 | 43.49880 | 28.88147 | 37958 ft | 451 kts | 309° |
| 2026-04-26 07:54 | 43.53979 | 28.81601 | 37955 ft | 451 kts | 309° |
| 2026-04-26 07:54 | 43.58076 | 28.75043 | 37951 ft | 450 kts | 309° |
| 2026-04-26 07:55 | 43.62124 | 28.68551 | 37949 ft | 449 kts | 309° |
| 2026-04-26 07:55 | 43.66192 | 28.62010 | 37959 ft | 449 kts | 309° |
| 2026-04-26 07:56 | 43.70257 | 28.55461 | 37939 ft | 449 kts | 309° |
| 2026-04-26 07:56 | 43.73977 | 28.48582 | 37932 ft | 445 kts | 299° |
| 2026-04-26 07:57 | 43.76857 | 28.41027 | 37929 ft | 444 kts | 296° |
| 2026-04-26 07:57 | 43.79600 | 28.33352 | 37923 ft | 444 kts | 295° |
| 2026-04-26 07:58 | 43.82316 | 28.25661 | 37915 ft | 444 kts | 295° |
| 2026-04-26 07:58 | 43.85032 | 28.17987 | 37919 ft | 443 kts | 296° |
| 2026-04-26 07:59 | 43.87728 | 28.10377 | 37918 ft | 442 kts | 295° |
| 2026-04-26 07:59 | 43.90434 | 28.02721 | 37915 ft | 442 kts | 295° |
| 2026-04-26 08:00 | 43.93133 | 27.95062 | 37918 ft | 442 kts | 295° |
| 2026-04-26 08:00 | 43.95831 | 27.87387 | 37915 ft | 442 kts | 295° |
| 2026-04-26 08:01 | 43.98521 | 27.79710 | 37913 ft | 442 kts | 295° |
| 2026-04-26 08:01 | 44.01208 | 27.72018 | 37913 ft | 442 kts | 295° |
| 2026-04-26 08:02 | 44.03891 | 27.64319 | 37905 ft | 442 kts | 295° |
| 2026-04-26 08:02 | 44.06552 | 27.56660 | 37911 ft | 443 kts | 295° |
| 2026-04-26 08:03 | 44.09228 | 27.48936 | 37909 ft | 443 kts | 295° |
| 2026-04-26 08:03 | 44.11898 | 27.41208 | 37909 ft | 443 kts | 295° |
| 2026-04-26 08:04 | 44.14566 | 27.33464 | 37914 ft | 443 kts | 295° |
| 2026-04-26 08:04 | 44.16775 | 27.27035 | 37910 ft | 442 kts | 295° |
| 2026-04-26 08:05 | 44.19420 | 27.19317 | 37908 ft | 442 kts | 295° |
| 2026-04-26 08:05 | 44.22060 | 27.11591 | 37907 ft | 442 kts | 295° |
| 2026-04-26 08:06 | 44.24696 | 27.03855 | 37907 ft | 442 kts | 295° |
| 2026-04-26 08:06 | 44.27324 | 26.96118 | 37904 ft | 440 kts | 295° |
| 2026-04-26 08:07 | 44.29929 | 26.88431 | 37907 ft | 440 kts | 295° |
| 2026-04-26 08:07 | 44.32540 | 26.80701 | 37907 ft | 440 kts | 295° |
| 2026-04-26 08:08 | 44.35146 | 26.72963 | 37906 ft | 440 kts | 295° |
| 2026-04-26 08:08 | 44.37747 | 26.65218 | 37907 ft | 440 kts | 295° |
| 2026-04-26 08:09 | 44.40343 | 26.57466 | 37892 ft | 439 kts | 294° |
| 2026-04-26 08:09 | 44.42927 | 26.49730 | 37905 ft | 439 kts | 294° |
| 2026-04-26 08:10 | 44.45506 | 26.41982 | 37908 ft | 439 kts | 294° |
| 2026-04-26 08:10 | 44.48080 | 26.34228 | 37894 ft | 439 kts | 294° |
| 2026-04-26 08:11 | 44.50649 | 26.26466 | 37904 ft | 439 kts | 294° |
| 2026-04-26 08:11 | 44.53218 | 26.18684 | 37920 ft | 439 kts | 294° |
| 2026-04-26 08:12 | 44.55761 | 26.10957 | 37918 ft | 439 kts | 294° |
| 2026-04-26 08:12 | 44.58317 | 26.03164 | 37918 ft | 440 kts | 294° |
| 2026-04-26 08:13 | 44.60870 | 25.95361 | 37916 ft | 440 kts | 294° |
| 2026-04-26 08:13 | 44.63419 | 25.87546 | 37913 ft | 440 kts | 294° |
| 2026-04-26 08:14 | 44.65963 | 25.79725 | 37902 ft | 440 kts | 294° |
| 2026-04-26 08:14 | 44.68493 | 25.71920 | 37889 ft | 442 kts | 294° |
| 2026-04-26 08:15 | 44.71040 | 25.64041 | 37887 ft | 443 kts | 294° |
| 2026-04-26 08:15 | 44.73586 | 25.56140 | 37892 ft | 443 kts | 294° |
| 2026-04-26 08:16 | 44.76122 | 25.48249 | 37883 ft | 443 kts | 294° |
| 2026-04-26 08:16 | 44.78652 | 25.40352 | 37898 ft | 444 kts | 294° |
| 2026-04-26 08:17 | 44.81173 | 25.32459 | 37905 ft | 444 kts | 294° |
| 2026-04-26 08:17 | 44.83704 | 25.24510 | 37913 ft | 444 kts | 294° |
| 2026-04-26 08:18 | 44.86230 | 25.16553 | 37914 ft | 444 kts | 294° |
| 2026-04-26 08:18 | 44.88748 | 25.08594 | 37917 ft | 445 kts | 294° |
| 2026-04-26 08:19 | 44.91265 | 25.00614 | 37912 ft | 445 kts | 294° |
| 2026-04-26 08:19 | 44.93780 | 24.92620 | 37924 ft | 446 kts | 294° |
| 2026-04-26 08:20 | 44.96295 | 24.84599 | 37922 ft | 446 kts | 294° |
| 2026-04-26 08:20 | 44.98798 | 24.76592 | 37916 ft | 447 kts | 294° |
| 2026-04-26 08:21 | 45.01311 | 24.68528 | 37920 ft | 449 kts | 294° |
| 2026-04-26 08:21 | 45.03821 | 24.60448 | 37923 ft | 449 kts | 294° |
| 2026-04-26 08:22 | 45.06311 | 24.52405 | 37927 ft | 449 kts | 294° |
| 2026-04-26 08:22 | 45.08812 | 24.44302 | 37930 ft | 451 kts | 294° |
| 2026-04-26 08:23 | 45.11333 | 24.36111 | 37927 ft | 455 kts | 294° |
| 2026-04-26 08:23 | 45.13857 | 24.27883 | 37925 ft | 456 kts | 294° |
| 2026-04-26 08:24 | 45.16374 | 24.19645 | 37936 ft | 456 kts | 294° |
| 2026-04-26 08:24 | 45.18888 | 24.11397 | 37937 ft | 456 kts | 294° |
| 2026-04-26 08:25 | 45.21390 | 24.03158 | 37947 ft | 453 kts | 294° |
| 2026-04-26 08:25 | 45.23847 | 23.95036 | 37958 ft | 445 kts | 294° |
| 2026-04-26 08:26 | 45.26302 | 23.86909 | 37950 ft | 449 kts | 294° |
| 2026-04-26 08:26 | 45.28774 | 23.78692 | 37946 ft | 452 kts | 294° |
| 2026-04-26 08:27 | 45.31216 | 23.70542 | 37953 ft | 447 kts | 294° |
| 2026-04-26 08:27 | 45.33543 | 23.62381 | 37947 ft | 444 kts | 292° |
| 2026-04-26 08:28 | 45.35734 | 23.54197 | 37954 ft | 447 kts | 292° |
| 2026-04-26 08:28 | 45.37962 | 23.45878 | 37947 ft | 450 kts | 292° |
| 2026-04-26 08:29 | 45.40192 | 23.37612 | 37954 ft | 447 kts | 292° |
| 2026-04-26 08:29 | 45.42411 | 23.29402 | 37956 ft | 443 kts | 292° |
| 2026-04-26 08:30 | 45.44631 | 23.21168 | 37982 ft | 446 kts | 292° |
| 2026-04-26 08:30 | 45.46845 | 23.12924 | 37960 ft | 449 kts | 292° |
| 2026-04-26 08:31 | 45.49066 | 23.04617 | 37966 ft | 449 kts | 292° |
| 2026-04-26 08:31 | 45.51290 | 22.96270 | 37969 ft | 450 kts | 292° |
| 2026-04-26 08:32 | 45.53511 | 22.87906 | 37973 ft | 450 kts | 292° |
| 2026-04-26 08:32 | 45.55723 | 22.79548 | 37970 ft | 450 kts | 292° |
| 2026-04-26 08:33 | 45.57932 | 22.71167 | 37982 ft | 451 kts | 292° |
| 2026-04-26 08:33 | 45.60132 | 22.62789 | 37999 ft | 451 kts | 292° |
| 2026-04-26 08:34 | 45.62315 | 22.54454 | 38007 ft | 451 kts | 292° |
| 2026-04-26 08:34 | 45.64506 | 22.46052 | 38001 ft | 451 kts | 291° |
| 2026-04-26 08:35 | 45.66696 | 22.37630 | 38001 ft | 453 kts | 292° |
| 2026-04-26 08:35 | 45.68892 | 22.29152 | 38007 ft | 455 kts | 291° |
| 2026-04-26 08:36 | 45.71084 | 22.20656 | 38008 ft | 455 kts | 291° |
| 2026-04-26 08:36 | 45.73267 | 22.12164 | 38005 ft | 455 kts | 291° |
| 2026-04-26 08:37 | 45.75444 | 22.03665 | 38008 ft | 455 kts | 291° |
| 2026-04-26 08:37 | 45.77617 | 21.95151 | 38011 ft | 455 kts | 291° |
| 2026-04-26 08:38 | 45.79773 | 21.86672 | 38007 ft | 455 kts | 291° |
| 2026-04-26 08:38 | 45.81933 | 21.78147 | 38008 ft | 455 kts | 291° |
| 2026-04-26 08:39 | 45.84088 | 21.69608 | 38008 ft | 455 kts | 291° |
| 2026-04-26 08:39 | 45.86233 | 21.61077 | 38016 ft | 454 kts | 291° |
| 2026-04-26 08:40 | 45.88372 | 21.52537 | 38021 ft | 454 kts | 291° |
| 2026-04-26 08:40 | 45.90508 | 21.43981 | 38022 ft | 454 kts | 291° |
| 2026-04-26 08:41 | 45.92633 | 21.35433 | 38017 ft | 455 kts | 291° |
| 2026-04-26 08:41 | 45.94755 | 21.26867 | 38021 ft | 455 kts | 291° |
| 2026-04-26 08:42 | 45.96866 | 21.18311 | 38021 ft | 455 kts | 291° |
| 2026-04-26 08:42 | 45.98973 | 21.09738 | 38019 ft | 455 kts | 291° |
| 2026-04-26 08:43 | 46.01076 | 21.01154 | 38019 ft | 455 kts | 290° |
| 2026-04-26 08:43 | 46.03160 | 20.92610 | 38021 ft | 455 kts | 290° |
| 2026-04-26 08:44 | 46.05248 | 20.84017 | 38027 ft | 455 kts | 290° |
| 2026-04-26 08:44 | 46.07332 | 20.75411 | 38031 ft | 455 kts | 290° |
| 2026-04-26 08:45 | 46.09409 | 20.66798 | 38031 ft | 455 kts | 290° |
| 2026-04-26 08:45 | 46.11478 | 20.58183 | 38043 ft | 454 kts | 290° |
| 2026-04-26 08:46 | 46.13539 | 20.49573 | 38042 ft | 454 kts | 290° |
| 2026-04-26 08:46 | 46.15578 | 20.41019 | 38048 ft | 454 kts | 290° |
| 2026-04-26 08:47 | 46.17576 | 20.32372 | 38047 ft | 454 kts | 289° |
| 2026-04-26 08:47 | 46.19458 | 20.23668 | 38061 ft | 452 kts | 289° |
| 2026-04-26 08:48 | 46.21339 | 20.15027 | 38054 ft | 450 kts | 289° |
| 2026-04-26 08:48 | 46.23232 | 20.06408 | 38056 ft | 449 kts | 289° |
| 2026-04-26 08:49 | 46.25119 | 19.97801 | 38065 ft | 449 kts | 289° |
| 2026-04-26 08:49 | 46.26997 | 19.89183 | 38063 ft | 450 kts | 289° |
| 2026-04-26 08:50 | 46.28868 | 19.80557 | 38067 ft | 449 kts | 289° |
| 2026-04-26 08:50 | 46.30721 | 19.71977 | 38072 ft | 449 kts | 289° |
| 2026-04-26 08:51 | 46.33204 | 19.60424 | 38072 ft | 449 kts | 289° |
| 2026-04-26 08:52 | 46.35041 | 19.51838 | 38078 ft | 449 kts | 289° |
| 2026-04-26 08:52 | 46.36880 | 19.43204 | 38080 ft | 449 kts | 289° |
| 2026-04-26 08:53 | 46.38713 | 19.34565 | 38080 ft | 449 kts | 289° |
| 2026-04-26 08:53 | 46.40542 | 19.25904 | 38089 ft | 449 kts | 289° |
| 2026-04-26 08:54 | 46.42364 | 19.17242 | 38089 ft | 450 kts | 289° |
| 2026-04-26 08:54 | 46.44180 | 19.08570 | 38092 ft | 450 kts | 289° |
| 2026-04-26 08:55 | 46.45998 | 18.99850 | 38092 ft | 451 kts | 289° |
| 2026-04-26 08:55 | 46.47794 | 18.91200 | 38097 ft | 451 kts | 289° |
| 2026-04-26 08:56 | 46.49595 | 18.82488 | 38099 ft | 451 kts | 289° |
| 2026-04-26 08:56 | 46.51397 | 18.73734 | 38104 ft | 452 kts | 289° |
| 2026-04-26 08:57 | 46.53193 | 18.64973 | 38109 ft | 453 kts | 288° |
| 2026-04-26 08:57 | 46.54983 | 18.56197 | 38114 ft | 453 kts | 288° |
| 2026-04-26 08:58 | 46.56764 | 18.47430 | 38112 ft | 453 kts | 288° |
| 2026-04-26 08:58 | 46.58542 | 18.38641 | 38122 ft | 454 kts | 288° |
| 2026-04-26 08:59 | 46.60308 | 18.29869 | 38122 ft | 454 kts | 288° |
| 2026-04-26 08:59 | 46.62075 | 18.21049 | 38129 ft | 454 kts | 288° |
| 2026-04-26 09:00 | 46.63837 | 18.12223 | 38130 ft | 454 kts | 288° |
| 2026-04-26 09:00 | 46.65590 | 18.03390 | 38137 ft | 455 kts | 288° |
| 2026-04-26 09:01 | 46.67341 | 17.94538 | 38142 ft | 455 kts | 288° |
| 2026-04-26 09:01 | 46.69083 | 17.85691 | 38139 ft | 455 kts | 288° |
| 2026-04-26 09:02 | 46.70825 | 17.76804 | 38149 ft | 456 kts | 288° |
| 2026-04-26 09:02 | 46.72559 | 17.67910 | 38147 ft | 455 kts | 287° |
| 2026-04-26 09:03 | 46.74282 | 17.59038 | 38148 ft | 456 kts | 287° |
| 2026-04-26 09:03 | 46.76002 | 17.50138 | 38152 ft | 456 kts | 287° |
| 2026-04-26 09:04 | 46.77705 | 17.41284 | 38155 ft | 456 kts | 287° |
| 2026-04-26 09:04 | 46.79408 | 17.32386 | 38148 ft | 456 kts | 287° |
| 2026-04-26 09:05 | 46.81112 | 17.23449 | 38156 ft | 458 kts | 287° |
| 2026-04-26 09:05 | 46.82810 | 17.14493 | 38157 ft | 457 kts | 287° |
| 2026-04-26 09:06 | 46.84496 | 17.05564 | 38140 ft | 457 kts | 287° |
| 2026-04-26 09:06 | 46.85340 | 17.01072 | 38309 ft | 458 kts | 287° |
| 2026-04-26 09:06 | 46.86181 | 16.96590 | 38575 ft | 458 kts | 287° |
| 2026-04-26 09:06 | 46.87021 | 16.92105 | 38887 ft | 456 kts | 287° |
| 2026-04-26 09:07 | 46.87853 | 16.87650 | 39182 ft | 454 kts | 287° |
| 2026-04-26 09:07 | 46.88681 | 16.83199 | 39414 ft | 453 kts | 287° |
| 2026-04-26 09:07 | 46.89508 | 16.78751 | 39593 ft | 453 kts | 287° |
| 2026-04-26 09:07 | 46.90321 | 16.74366 | 39778 ft | 453 kts | 287° |
| 2026-04-26 09:08 | 46.91145 | 16.69911 | 39958 ft | 453 kts | 287° |
| 2026-04-26 09:08 | 46.91965 | 16.65470 | 40114 ft | 454 kts | 287° |
| 2026-04-26 09:08 | 46.92789 | 16.60997 | 40154 ft | 454 kts | 287° |
| 2026-04-26 09:09 | 46.94425 | 16.52075 | 40144 ft | 453 kts | 286° |
| 2026-04-26 09:09 | 46.96052 | 16.43161 | 40146 ft | 453 kts | 286° |
| 2026-04-26 09:10 | 46.97672 | 16.34243 | 40148 ft | 453 kts | 286° |
| 2026-04-26 09:10 | 46.99288 | 16.25304 | 40138 ft | 456 kts | 286° |
| 2026-04-26 09:11 | 47.00836 | 16.16279 | 40140 ft | 463 kts | 284° |
| 2026-04-26 09:11 | 47.02157 | 16.07003 | 40131 ft | 466 kts | 283° |
| 2026-04-26 09:12 | 47.03449 | 15.97713 | 40132 ft | 465 kts | 283° |
| 2026-04-26 09:12 | 47.04773 | 15.88424 | 40124 ft | 465 kts | 283° |
| 2026-04-26 09:13 | 47.06109 | 15.79151 | 40117 ft | 465 kts | 283° |
| 2026-04-26 09:13 | 47.07443 | 15.69860 | 40128 ft | 466 kts | 283° |
| 2026-04-26 09:14 | 47.08769 | 15.60556 | 40124 ft | 466 kts | 283° |
| 2026-04-26 09:14 | 47.09910 | 15.52504 | 40127 ft | 466 kts | 283° |
| 2026-04-26 09:15 | 47.11237 | 15.43071 | 40122 ft | 466 kts | 283° |
| 2026-04-26 09:15 | 47.12543 | 15.33739 | 40119 ft | 466 kts | 283° |
| 2026-04-26 09:16 | 47.13832 | 15.24468 | 40124 ft | 467 kts | 283° |
| 2026-04-26 09:16 | 47.15123 | 15.15125 | 40128 ft | 467 kts | 283° |
| 2026-04-26 09:17 | 47.16406 | 15.05774 | 40126 ft | 467 kts | 282° |
| 2026-04-26 09:17 | 47.17682 | 14.96412 | 40152 ft | 467 kts | 282° |
| 2026-04-26 09:18 | 47.18950 | 14.87057 | 40157 ft | 466 kts | 282° |
| 2026-04-26 09:18 | 47.20202 | 14.77749 | 40156 ft | 466 kts | 282° |
| 2026-04-26 09:19 | 47.21454 | 14.68388 | 40157 ft | 466 kts | 282° |
| 2026-04-26 09:19 | 47.22699 | 14.59023 | 40149 ft | 466 kts | 282° |
| 2026-04-26 09:20 | 47.23935 | 14.49660 | 40162 ft | 467 kts | 282° |
| 2026-04-26 09:20 | 47.25166 | 14.40266 | 40163 ft | 467 kts | 281° |
| 2026-04-26 09:21 | 47.26389 | 14.30878 | 40177 ft | 467 kts | 281° |
| 2026-04-26 09:21 | 47.27596 | 14.21539 | 40185 ft | 467 kts | 281° |
| 2026-04-26 09:22 | 47.28801 | 14.12163 | 40188 ft | 466 kts | 281° |
| 2026-04-26 09:22 | 47.29997 | 14.02791 | 40196 ft | 465 kts | 281° |
| 2026-04-26 09:23 | 47.31182 | 13.93453 | 40192 ft | 464 kts | 281° |
| 2026-04-26 09:23 | 47.32362 | 13.84077 | 40192 ft | 465 kts | 281° |
| 2026-04-26 09:24 | 47.33534 | 13.74694 | 40202 ft | 465 kts | 281° |
| 2026-04-26 09:24 | 47.34698 | 13.65304 | 40202 ft | 466 kts | 281° |
| 2026-04-26 09:25 | 47.35857 | 13.55901 | 40209 ft | 466 kts | 281° |
| 2026-04-26 09:25 | 47.37007 | 13.46504 | 40207 ft | 466 kts | 281° |
| 2026-04-26 09:26 | 47.38144 | 13.37146 | 40208 ft | 465 kts | 281° |
| 2026-04-26 09:26 | 47.39276 | 13.27762 | 40209 ft | 465 kts | 280° |
| 2026-04-26 09:27 | 47.40402 | 13.18362 | 40202 ft | 464 kts | 280° |
| 2026-04-26 09:27 | 47.41519 | 13.08968 | 40202 ft | 464 kts | 280° |
| 2026-04-26 09:28 | 47.42626 | 12.99593 | 40201 ft | 464 kts | 280° |
| 2026-04-26 09:28 | 47.43728 | 12.90190 | 40212 ft | 464 kts | 280° |
| 2026-04-26 09:29 | 47.44821 | 12.80786 | 40210 ft | 464 kts | 280° |
| 2026-04-26 09:29 | 47.45909 | 12.71365 | 40214 ft | 465 kts | 280° |
| 2026-04-26 09:30 | 47.46993 | 12.61909 | 40216 ft | 467 kts | 279° |
| 2026-04-26 09:30 | 47.48069 | 12.52449 | 40218 ft | 467 kts | 279° |
| 2026-04-26 09:31 | 47.49130 | 12.43038 | 40220 ft | 467 kts | 279° |
| 2026-04-26 09:31 | 47.50191 | 12.33560 | 40218 ft | 467 kts | 279° |
| 2026-04-26 09:32 | 47.51244 | 12.24082 | 40225 ft | 467 kts | 279° |
| 2026-04-26 09:32 | 47.52288 | 12.14609 | 40224 ft | 467 kts | 279° |
| 2026-04-26 09:33 | 47.53325 | 12.05130 | 40223 ft | 467 kts | 279° |
| 2026-04-26 09:33 | 47.54388 | 11.95716 | 40225 ft | 466 kts | 280° |
| 2026-04-26 09:34 | 47.55651 | 11.86298 | 40220 ft | 466 kts | 281° |
| 2026-04-26 09:34 | 47.56938 | 11.76870 | 40227 ft | 467 kts | 281° |
| 2026-04-26 09:35 | 47.58191 | 11.67419 | 40221 ft | 467 kts | 281° |
| 2026-04-26 09:35 | 47.59415 | 11.57985 | 40221 ft | 467 kts | 281° |
| 2026-04-26 09:36 | 47.60629 | 11.48530 | 40222 ft | 467 kts | 280° |
| 2026-04-26 09:36 | 47.61812 | 11.39258 | 40227 ft | 451 kts | 280° |
| 2026-04-26 09:36 | 47.62390 | 11.34714 | 40020 ft | 446 kts | 280° |
| 2026-04-26 09:37 | 47.62963 | 11.30195 | 39783 ft | 446 kts | 280° |
| 2026-04-26 09:37 | 47.63534 | 11.25669 | 39555 ft | 447 kts | 280° |
| 2026-04-26 09:37 | 47.64105 | 11.21131 | 39319 ft | 448 kts | 280° |
| 2026-04-26 09:37 | 47.64673 | 11.16599 | 39090 ft | 448 kts | 280° |
| 2026-04-26 09:38 | 47.65240 | 11.12060 | 38848 ft | 447 kts | 279° |
| 2026-04-26 09:38 | 47.65806 | 11.07518 | 38553 ft | 448 kts | 279° |
| 2026-04-26 09:38 | 47.66370 | 11.02975 | 38272 ft | 448 kts | 279° |
| 2026-04-26 09:38 | 47.66933 | 10.98418 | 37990 ft | 449 kts | 280° |
| 2026-04-26 09:39 | 47.67496 | 10.93858 | 37711 ft | 450 kts | 279° |
| 2026-04-26 09:39 | 47.68059 | 10.89271 | 37422 ft | 451 kts | 279° |
| 2026-04-26 09:39 | 47.68619 | 10.84701 | 37184 ft | 451 kts | 279° |
| 2026-04-26 09:39 | 47.69179 | 10.80111 | 36879 ft | 450 kts | 279° |
| 2026-04-26 09:40 | 47.69732 | 10.75571 | 36483 ft | 443 kts | 280° |
| 2026-04-26 09:40 | 47.70090 | 10.72619 | 36182 ft | 440 kts | 280° |
| 2026-04-26 09:40 | 47.70630 | 10.68155 | 35691 ft | 436 kts | 280° |
| 2026-04-26 09:40 | 47.71333 | 10.62316 | 35048 ft | 431 kts | 280° |
| 2026-04-26 09:41 | 47.71854 | 10.57976 | 34550 ft | 428 kts | 280° |
| 2026-04-26 09:41 | 47.72375 | 10.53616 | 34048 ft | 424 kts | 279° |
| 2026-04-26 09:41 | 47.72722 | 10.50714 | 33706 ft | 422 kts | 279° |
| 2026-04-26 09:41 | 47.73223 | 10.46502 | 33234 ft | 417 kts | 279° |
| 2026-04-26 09:42 | 47.73724 | 10.42278 | 32764 ft | 413 kts | 279° |
| 2026-04-26 09:42 | 47.74215 | 10.38091 | 32293 ft | 409 kts | 279° |
| 2026-04-26 09:42 | 47.74466 | 10.33913 | 31868 ft | 403 kts | 270° |
| 2026-04-26 09:42 | 47.74466 | 10.29759 | 31428 ft | 400 kts | 269° |
| 2026-04-26 09:43 | 47.74409 | 10.25646 | 30970 ft | 397 kts | 268° |
| 2026-04-26 09:43 | 47.74320 | 10.21514 | 30474 ft | 405 kts | 268° |
| 2026-04-26 09:43 | 47.74216 | 10.17312 | 29875 ft | 409 kts | 268° |
| 2026-04-26 09:43 | 47.74106 | 10.13091 | 29245 ft | 408 kts | 268° |
| 2026-04-26 09:44 | 47.73998 | 10.08886 | 28641 ft | 406 kts | 268° |
| 2026-04-26 09:44 | 47.73892 | 10.04704 | 28084 ft | 404 kts | 268° |
| 2026-04-26 09:44 | 47.73787 | 10.00535 | 27527 ft | 403 kts | 268° |
| 2026-04-26 09:44 | 47.73685 | 9.96435 | 26995 ft | 401 kts | 268° |
| 2026-04-26 09:45 | 47.73584 | 9.92257 | 26455 ft | 399 kts | 268° |
| 2026-04-26 09:45 | 47.73482 | 9.88150 | 25941 ft | 396 kts | 268° |
| 2026-04-26 09:45 | 47.73377 | 9.84073 | 25423 ft | 394 kts | 268° |
| 2026-04-26 09:45 | 47.73271 | 9.80021 | 24930 ft | 392 kts | 268° |
| 2026-04-26 09:46 | 47.73164 | 9.75990 | 24430 ft | 390 kts | 268° |
| 2026-04-26 09:46 | 47.73055 | 9.71936 | 23949 ft | 395 kts | 268° |
| 2026-04-26 09:46 | 47.72946 | 9.67885 | 23404 ft | 397 kts | 267° |
| 2026-04-26 09:46 | 47.72837 | 9.63794 | 22836 ft | 395 kts | 268° |
| 2026-04-26 09:47 | 47.72727 | 9.59734 | 22274 ft | 392 kts | 268° |
| 2026-04-26 09:47 | 47.72611 | 9.55700 | 21737 ft | 389 kts | 268° |
| 2026-04-26 09:47 | 47.72497 | 9.51683 | 21195 ft | 393 kts | 268° |
| 2026-04-26 09:47 | 47.72374 | 9.47610 | 20670 ft | 396 kts | 267° |
| 2026-04-26 09:48 | 47.71964 | 9.43573 | 20143 ft | 396 kts | 253° |
| 2026-04-26 09:48 | 47.70733 | 9.39934 | 19649 ft | 394 kts | 235° |
| 2026-04-26 09:48 | 47.69032 | 9.36726 | 19124 ft | 398 kts | 231° |
| 2026-04-26 09:48 | 47.67249 | 9.33542 | 18631 ft | 403 kts | 231° |
| 2026-04-26 09:49 | 47.65459 | 9.30336 | 18076 ft | 402 kts | 232° |
| 2026-04-26 09:49 | 47.63681 | 9.27133 | 17519 ft | 400 kts | 232° |
| 2026-04-26 09:49 | 47.61945 | 9.23999 | 16972 ft | 396 kts | 232° |
| 2026-04-26 09:49 | 47.60238 | 9.20815 | 16442 ft | 392 kts | 237° |
| 2026-04-26 09:50 | 47.59057 | 9.17183 | 15890 ft | 394 kts | 255° |
| 2026-04-26 09:50 | 47.58482 | 9.13222 | 15342 ft | 393 kts | 261° |
| 2026-04-26 09:50 | 47.58017 | 9.09241 | 14807 ft | 390 kts | 261° |
| 2026-04-26 09:50 | 47.57643 | 9.05269 | 14273 ft | 387 kts | 268° |
| 2026-04-26 09:51 | 47.57999 | 9.01347 | 13704 ft | 384 kts | 287° |
| 2026-04-26 09:51 | 47.58935 | 8.97693 | 13113 ft | 383 kts | 292° |
| 2026-04-26 09:51 | 47.59965 | 8.94068 | 12524 ft | 381 kts | 293° |
| 2026-04-26 09:51 | 47.60981 | 8.90452 | 11967 ft | 377 kts | 292° |
| 2026-04-26 09:52 | 47.61974 | 8.86871 | 11460 ft | 374 kts | 292° |
| 2026-04-26 09:52 | 47.63048 | 8.79471 | 10513 ft | 367 kts | 263° |
| 2026-04-26 09:52 | 47.62323 | 8.75921 | 10279 ft | 353 kts | 248° |
| 2026-04-26 09:53 | 47.61378 | 8.72677 | 10243 ft | 333 kts | 247° |
| 2026-04-26 09:53 | 47.60479 | 8.69618 | 10239 ft | 313 kts | 248° |
| 2026-04-26 09:53 | 47.59643 | 8.66733 | 10244 ft | 297 kts | 248° |
| 2026-04-26 09:53 | 47.58937 | 8.63942 | 10148 ft | 292 kts | 257° |
| 2026-04-26 09:54 | 47.58854 | 8.60976 | 9903 ft | 288 kts | 282° |
| 2026-04-26 09:54 | 47.59634 | 8.58274 | 9634 ft | 286 kts | 307° |
| 2026-04-26 09:54 | 47.60987 | 8.56131 | 9375 ft | 285 kts | 318° |
| 2026-04-26 09:54 | 47.62455 | 8.54160 | 9117 ft | 285 kts | 319° |
| 2026-04-26 09:55 | 47.63925 | 8.52194 | 8853 ft | 283 kts | 319° |
| 2026-04-26 09:55 | 47.65384 | 8.50227 | 8589 ft | 283 kts | 318° |
| 2026-04-26 09:55 | 47.66829 | 8.48253 | 8344 ft | 282 kts | 318° |
| 2026-04-26 09:55 | 47.68274 | 8.46280 | 8086 ft | 282 kts | 317° |
| 2026-04-26 09:56 | 47.69713 | 8.44307 | 7848 ft | 281 kts | 318° |
| 2026-04-26 09:56 | 47.71152 | 8.42339 | 7594 ft | 280 kts | 317° |
| 2026-04-26 09:56 | 47.72567 | 8.40351 | 7354 ft | 280 kts | 315° |
| 2026-04-26 09:56 | 47.73648 | 8.38011 | 7108 ft | 280 kts | 292° |
| 2026-04-26 09:57 | 47.73900 | 8.35139 | 6861 ft | 280 kts | 262° |
| 2026-04-26 09:57 | 47.73230 | 8.32509 | 6595 ft | 276 kts | 234° |
| 2026-04-26 09:57 | 47.72007 | 8.30373 | 6304 ft | 270 kts | 225° |
| 2026-04-26 09:57 | 47.70612 | 8.28552 | 5984 ft | 265 kts | 211° |
| 2026-04-26 09:58 | 47.68922 | 8.27656 | 5686 ft | 255 kts | 184° |
| 2026-04-26 09:58 | 47.67210 | 8.28008 | 5408 ft | 247 kts | 156° |
| 2026-04-26 09:58 | 47.65783 | 8.29379 | 5088 ft | 243 kts | 136° |
| 2026-04-26 09:58 | 47.64552 | 8.31074 | 4830 ft | 241 kts | 134° |
| 2026-04-26 09:59 | 47.63355 | 8.32776 | 4538 ft | 236 kts | 134° |
| 2026-04-26 09:59 | 47.62176 | 8.34447 | 4257 ft | 233 kts | 134° |
| 2026-04-26 09:59 | 47.61009 | 8.36107 | 4014 ft | 231 kts | 134° |
| 2026-04-26 09:59 | 47.59866 | 8.37687 | 3967 ft | 217 kts | 135° |
| 2026-04-26 10:00 | 47.58809 | 8.39143 | 3970 ft | 197 kts | 134° |
| 2026-04-26 10:00 | 47.57853 | 8.40448 | 4021 ft | 175 kts | 135° |
| 2026-04-26 10:00 | 47.56993 | 8.41618 | 4096 ft | 160 kts | 134° |
| 2026-04-26 10:00 | 47.56195 | 8.42714 | 3910 ft | 155 kts | 134° |
| 2026-04-26 10:01 | 47.55388 | 8.43817 | 3574 ft | 162 kts | 133° |
| 2026-04-26 10:01 | 47.54554 | 8.44965 | 3133 ft | 168 kts | 133° |
| 2026-04-26 10:01 | 47.53719 | 8.46101 | 2923 ft | 157 kts | 134° |
| 2026-04-26 10:01 | 47.52941 | 8.47160 | 2741 ft | 148 kts | 135° |
| 2026-04-26 10:02 | 47.52196 | 8.48172 | 2533 ft | 141 kts | 132° |
| 2026-04-26 10:02 | 47.51493 | 8.49131 | 2339 ft | 135 kts | 133° |
| 2026-04-26 10:02 | 47.50799 | 8.50050 | 2153 ft | 135 kts | 133° |
| 2026-04-26 10:02 | 47.50105 | 8.51010 | 1912 ft | 136 kts | 132° |
| 2026-04-26 10:03 | 47.49406 | 8.51967 | 1739 ft | 139 kts | 133° |
| 2026-04-26 10:03 | 47.48690 | 8.52956 | 1598 ft | 143 kts | 136° |
| 2026-04-26 10:03 | 47.47963 | 8.53948 | 1428 ft | 138 kts | 133° |
| 2026-04-26 10:03 | 47.47344 | 8.54789 | 1407 ft | 94 kts | 137° |
| 2026-04-26 10:04 | 47.47010 | 8.55244 | 1403 ft | 43 kts | 137° |
| 2026-04-26 10:04 | 47.46822 | 8.55500 | 1407 ft | 14 kts | 138° |
| 2026-04-26 10:04 | 47.46748 | 8.55584 | 1410 ft | 15 kts | 147° |
| 2026-04-26 10:04 | 47.46644 | 8.55659 | 1407 ft | 18 kts | 162° |
| 2026-04-26 10:05 | 47.46559 | 8.55691 | 1405 ft | 7 kts | 167° |
| 2026-04-26 10:05 | 47.46505 | 8.55709 | 1405 ft | 9 kts | 167° |
| 2026-04-26 10:05 | 47.46455 | 8.55725 | 1410 ft | 7 kts | 167° |
| 2026-04-26 10:05 | 47.46401 | 8.55748 | 1411 ft | 9 kts | 158° |
| 2026-04-26 10:06 | 47.46350 | 8.55802 | 1415 ft | 9 kts | 139° |
| 2026-04-26 10:06 | 47.46299 | 8.55870 | 1416 ft | 10 kts | 137° |
| 2026-04-26 10:06 | 47.46245 | 8.55944 | 1417 ft | 11 kts | 137° |
| 2026-04-26 10:06 | 47.46202 | 8.55990 | 1418 ft | 7 kts | 161° |
| 2026-04-26 10:07 | 47.46149 | 8.55996 | 1416 ft | 9 kts | 181° |
| 2026-04-26 10:07 | 47.46082 | 8.55988 | 1413 ft | 11 kts | 185° |
| 2026-04-26 10:07 | 47.46002 | 8.55977 | 1412 ft | 9 kts | 185° |
| 2026-04-26 10:07 | 47.45961 | 8.55963 | 1414 ft | 6 kts | 204° |
| 2026-04-26 10:08 | 47.45940 | 8.55907 | 1419 ft | 8 kts | 261° |
| 2026-04-26 10:08 | 47.45944 | 8.55803 | 1414 ft | 10 kts | 276° |
| 2026-04-26 10:08 | 47.45951 | 8.55708 | 1411 ft | 11 kts | 276° |
| 2026-04-26 10:08 | 47.45958 | 8.55607 | 1407 ft | 7 kts | 276° |
| 2026-04-26 10:09 | 47.45960 | 8.55569 | 1410 ft | 3 kts | 276° |
| 2026-04-26 10:09 | 47.45972 | 8.55528 | 1413 ft | 4 kts | 314° |
| 2026-04-26 10:09 | 47.46001 | 8.55524 | 1410 ft | 6 kts | 360° |
| 2026-04-26 10:09 | 47.46014 | 8.55525 | 1412 ft | 2 kts | 5° |
| 2026-04-26 10:10 | 47.46018 | 8.55525 | 1412 ft | 0 kts | 4° |
| 2026-04-26 10:10 | 47.46021 | 8.55525 | 1412 ft | 1 kts | 3° |
| 2026-04-26 10:10 | 47.46033 | 8.55527 | 1412 ft | 1 kts | 4° |
| 2026-04-26 10:10 | 47.46045 | 8.55528 | 1413 ft | 1 kts | 5° |
| 2026-04-26 10:11 | 47.46049 | 8.55529 | 1413 ft | 0 kts | 5° |